<?xml version="1.0" encoding="UTF-8" standalone="no" ?>
<gpx xmlns="http://www.topografix.com/GPX/1/1" xmlns:xsi="http://www.w3.org/2001/XMLSchema-instance" xsi:schemaLocation="http://www.topografix.com/GPX/1/1 http://www.topografix.com/GPX/1/1/gpx.xsd" version="1.1" creator="VisuGPX - https://www.visugpx.com">
  <metadata>
    <name>14876581-Plateau du Roi petite boucle</name>
  </metadata>
  <trk>
    <name><![CDATA[14876581-Plateau du Roi petite boucle]]></name>
    <trkseg>
      <trkpt lat="44.63456" lon="3.67586">
        <ele>1185</ele>
        <time>2022-06-04T16:51:04Z</time>
      </trkpt>
      <trkpt lat="44.63428" lon="3.67591">
        <ele>1182</ele>
        <time>2022-06-04T16:51:09Z</time>
      </trkpt>
      <trkpt lat="44.63415" lon="3.67601">
        <ele>1181</ele>
        <time>2022-06-04T16:51:12Z</time>
      </trkpt>
      <trkpt lat="44.63399" lon="3.67606">
        <ele>1180</ele>
        <time>2022-06-04T16:51:15Z</time>
      </trkpt>
      <trkpt lat="44.63398" lon="3.67583">
        <ele>1180</ele>
        <time>2022-06-04T16:51:17Z</time>
      </trkpt>
      <trkpt lat="44.634" lon="3.67557">
        <ele>1179</ele>
        <time>2022-06-04T16:51:21Z</time>
      </trkpt>
      <trkpt lat="44.63419" lon="3.675">
        <ele>1177</ele>
        <time>2022-06-04T16:51:29Z</time>
      </trkpt>
      <trkpt lat="44.63442" lon="3.67463">
        <ele>1177</ele>
        <time>2022-06-04T16:51:35Z</time>
      </trkpt>
      <trkpt lat="44.63473" lon="3.67435">
        <ele>1177</ele>
        <time>2022-06-04T16:51:42Z</time>
      </trkpt>
      <trkpt lat="44.63527" lon="3.67397">
        <ele>1178</ele>
        <time>2022-06-04T16:51:52Z</time>
      </trkpt>
      <trkpt lat="44.6355" lon="3.67384">
        <ele>1178</ele>
        <time>2022-06-04T16:51:57Z</time>
      </trkpt>
      <trkpt lat="44.63601" lon="3.67368">
        <ele>1179</ele>
        <time>2022-06-04T16:52:06Z</time>
      </trkpt>
      <trkpt lat="44.63662" lon="3.67369">
        <ele>1181</ele>
        <time>2022-06-04T16:52:17Z</time>
      </trkpt>
      <trkpt lat="44.63719" lon="3.67345">
        <ele>1180</ele>
        <time>2022-06-04T16:52:27Z</time>
      </trkpt>
      <trkpt lat="44.63765" lon="3.67295">
        <ele>1179</ele>
        <time>2022-06-04T16:52:38Z</time>
      </trkpt>
      <trkpt lat="44.63819" lon="3.67204">
        <ele>1177</ele>
        <time>2022-06-04T16:52:53Z</time>
      </trkpt>
      <trkpt lat="44.63911" lon="3.67061">
        <ele>1177</ele>
        <time>2022-06-04T16:53:17Z</time>
      </trkpt>
      <trkpt lat="44.6398" lon="3.67001">
        <ele>1175</ele>
        <time>2022-06-04T16:53:32Z</time>
      </trkpt>
      <trkpt lat="44.64097" lon="3.66958">
        <ele>1175</ele>
        <time>2022-06-04T16:53:53Z</time>
      </trkpt>
      <trkpt lat="44.64233" lon="3.66894">
        <ele>1171</ele>
        <time>2022-06-04T16:54:19Z</time>
      </trkpt>
      <trkpt lat="44.64257" lon="3.66891">
        <ele>1170</ele>
        <time>2022-06-04T16:54:23Z</time>
      </trkpt>
      <trkpt lat="44.64291" lon="3.66896">
        <ele>1170</ele>
        <time>2022-06-04T16:54:29Z</time>
      </trkpt>
      <trkpt lat="44.64335" lon="3.66913">
        <ele>1170</ele>
        <time>2022-06-04T16:54:37Z</time>
      </trkpt>
      <trkpt lat="44.64412" lon="3.66921">
        <ele>1168</ele>
        <time>2022-06-04T16:54:51Z</time>
      </trkpt>
      <trkpt lat="44.64528" lon="3.66976">
        <ele>1169</ele>
        <time>2022-06-04T16:55:13Z</time>
      </trkpt>
      <trkpt lat="44.64556" lon="3.66979">
        <ele>1169</ele>
        <time>2022-06-04T16:55:18Z</time>
      </trkpt>
      <trkpt lat="44.64583" lon="3.6698">
        <ele>1168</ele>
        <time>2022-06-04T16:55:22Z</time>
      </trkpt>
      <trkpt lat="44.64611" lon="3.66972">
        <ele>1169</ele>
        <time>2022-06-04T16:55:28Z</time>
      </trkpt>
      <trkpt lat="44.6462" lon="3.66967">
        <ele>1169</ele>
        <time>2022-06-04T16:55:29Z</time>
      </trkpt>
      <trkpt lat="44.64642" lon="3.66947">
        <ele>1168</ele>
        <time>2022-06-04T16:55:34Z</time>
      </trkpt>
      <trkpt lat="44.64657" lon="3.66925">
        <ele>1165</ele>
        <time>2022-06-04T16:55:38Z</time>
      </trkpt>
      <trkpt lat="44.64697" lon="3.66831">
        <ele>1164</ele>
        <time>2022-06-04T16:55:52Z</time>
      </trkpt>
      <trkpt lat="44.64706" lon="3.66816">
        <ele>1164</ele>
        <time>2022-06-04T16:55:54Z</time>
      </trkpt>
      <trkpt lat="44.64729" lon="3.66792">
        <ele>1163</ele>
        <time>2022-06-04T16:55:59Z</time>
      </trkpt>
      <trkpt lat="44.64744" lon="3.66786">
        <ele>1162</ele>
        <time>2022-06-04T16:56:02Z</time>
      </trkpt>
      <trkpt lat="44.64761" lon="3.66783">
        <ele>1161</ele>
        <time>2022-06-04T16:56:05Z</time>
      </trkpt>
      <trkpt lat="44.64789" lon="3.66789">
        <ele>1161</ele>
        <time>2022-06-04T16:56:10Z</time>
      </trkpt>
      <trkpt lat="44.64872" lon="3.66836">
        <ele>1160</ele>
        <time>2022-06-04T16:56:26Z</time>
      </trkpt>
      <trkpt lat="44.64952" lon="3.66887">
        <ele>1160</ele>
        <time>2022-06-04T16:56:42Z</time>
      </trkpt>
      <trkpt lat="44.64986" lon="3.66919">
        <ele>1157</ele>
        <time>2022-06-04T16:56:49Z</time>
      </trkpt>
      <trkpt lat="44.65012" lon="3.66951">
        <ele>1157</ele>
        <time>2022-06-04T16:56:55Z</time>
      </trkpt>
      <trkpt lat="44.65028" lon="3.66985">
        <ele>1158</ele>
        <time>2022-06-04T16:57:00Z</time>
      </trkpt>
      <trkpt lat="44.65048" lon="3.67043">
        <ele>1158</ele>
        <time>2022-06-04T16:57:08Z</time>
      </trkpt>
      <trkpt lat="44.65062" lon="3.6711">
        <ele>1158</ele>
        <time>2022-06-04T16:57:17Z</time>
      </trkpt>
      <trkpt lat="44.65068" lon="3.67159">
        <ele>1157</ele>
        <time>2022-06-04T16:57:24Z</time>
      </trkpt>
      <trkpt lat="44.65065" lon="3.67217">
        <ele>1156</ele>
        <time>2022-06-04T16:57:31Z</time>
      </trkpt>
      <trkpt lat="44.6506" lon="3.67255">
        <ele>1156</ele>
        <time>2022-06-04T16:57:36Z</time>
      </trkpt>
      <trkpt lat="44.64913" lon="3.67751">
        <ele>1144</ele>
        <time>2022-06-04T16:58:44Z</time>
      </trkpt>
      <trkpt lat="44.65056" lon="3.67706">
        <ele>1140</ele>
        <time>2022-06-04T16:59:10Z</time>
      </trkpt>
      <trkpt lat="44.65075" lon="3.67703">
        <ele>1139</ele>
        <time>2022-06-04T16:59:13Z</time>
      </trkpt>
      <trkpt lat="44.65103" lon="3.67698">
        <ele>1139</ele>
        <time>2022-06-04T16:59:18Z</time>
      </trkpt>
      <trkpt lat="44.65144" lon="3.6769">
        <ele>1139</ele>
        <time>2022-06-04T16:59:26Z</time>
      </trkpt>
      <trkpt lat="44.65169" lon="3.67677">
        <ele>1138</ele>
        <time>2022-06-04T16:59:30Z</time>
      </trkpt>
      <trkpt lat="44.65193" lon="3.67661">
        <ele>1138</ele>
        <time>2022-06-04T16:59:35Z</time>
      </trkpt>
      <trkpt lat="44.65222" lon="3.67633">
        <ele>1138</ele>
        <time>2022-06-04T16:59:41Z</time>
      </trkpt>
      <trkpt lat="44.65248" lon="3.67599">
        <ele>1139</ele>
        <time>2022-06-04T16:59:48Z</time>
      </trkpt>
      <trkpt lat="44.65275" lon="3.67553">
        <ele>1140</ele>
        <time>2022-06-04T16:59:55Z</time>
      </trkpt>
      <trkpt lat="44.65301" lon="3.67498">
        <ele>1142</ele>
        <time>2022-06-04T17:00:04Z</time>
      </trkpt>
      <trkpt lat="44.65326" lon="3.6745">
        <ele>1143</ele>
        <time>2022-06-04T17:00:11Z</time>
      </trkpt>
      <trkpt lat="44.65359" lon="3.67405">
        <ele>1143</ele>
        <time>2022-06-04T17:00:19Z</time>
      </trkpt>
      <trkpt lat="44.65404" lon="3.67351">
        <ele>1141</ele>
        <time>2022-06-04T17:00:30Z</time>
      </trkpt>
      <trkpt lat="44.65471" lon="3.67293">
        <ele>1143</ele>
        <time>2022-06-04T17:00:44Z</time>
      </trkpt>
      <trkpt lat="44.65725" lon="3.67106">
        <ele>1146</ele>
        <time>2022-06-04T17:01:35Z</time>
      </trkpt>
      <trkpt lat="44.6572" lon="3.67089">
        <ele>1146</ele>
        <time>2022-06-04T17:01:37Z</time>
      </trkpt>
      <trkpt lat="44.6572" lon="3.6707">
        <ele>1145</ele>
        <time>2022-06-04T17:01:40Z</time>
      </trkpt>
      <trkpt lat="44.65743" lon="3.67017">
        <ele>1146</ele>
        <time>2022-06-04T17:01:47Z</time>
      </trkpt>
      <trkpt lat="44.65771" lon="3.66943">
        <ele>1146</ele>
        <time>2022-06-04T17:01:58Z</time>
      </trkpt>
      <trkpt lat="44.65804" lon="3.6683">
        <ele>1146</ele>
        <time>2022-06-04T17:02:14Z</time>
      </trkpt>
      <trkpt lat="44.65809" lon="3.66757">
        <ele>1145</ele>
        <time>2022-06-04T17:02:23Z</time>
      </trkpt>
      <trkpt lat="44.65803" lon="3.66667">
        <ele>1143</ele>
        <time>2022-06-04T17:02:34Z</time>
      </trkpt>
      <trkpt lat="44.65751" lon="3.66202">
        <ele>1147</ele>
        <time>2022-06-04T17:03:34Z</time>
      </trkpt>
      <trkpt lat="44.65734" lon="3.6608">
        <ele>1148</ele>
        <time>2022-06-04T17:03:50Z</time>
      </trkpt>
      <trkpt lat="44.65732" lon="3.66054">
        <ele>1148</ele>
        <time>2022-06-04T17:03:53Z</time>
      </trkpt>
      <trkpt lat="44.65735" lon="3.66029">
        <ele>1148</ele>
        <time>2022-06-04T17:03:56Z</time>
      </trkpt>
      <trkpt lat="44.65758" lon="3.65886">
        <ele>1150</ele>
        <time>2022-06-04T17:04:15Z</time>
      </trkpt>
      <trkpt lat="44.65762" lon="3.65785">
        <ele>1152</ele>
        <time>2022-06-04T17:04:27Z</time>
      </trkpt>
      <trkpt lat="44.65766" lon="3.65575">
        <ele>1152</ele>
        <time>2022-06-04T17:04:54Z</time>
      </trkpt>
      <trkpt lat="44.65772" lon="3.65508">
        <ele>1152</ele>
        <time>2022-06-04T17:05:03Z</time>
      </trkpt>
      <trkpt lat="44.65795" lon="3.65384">
        <ele>1152</ele>
        <time>2022-06-04T17:05:19Z</time>
      </trkpt>
      <trkpt lat="44.65842" lon="3.65166">
        <ele>1151</ele>
        <time>2022-06-04T17:05:48Z</time>
      </trkpt>
      <trkpt lat="44.65855" lon="3.65069">
        <ele>1151</ele>
        <time>2022-06-04T17:06:00Z</time>
      </trkpt>
      <trkpt lat="44.65861" lon="3.64966">
        <ele>1154</ele>
        <time>2022-06-04T17:06:13Z</time>
      </trkpt>
      <trkpt lat="44.65851" lon="3.64914">
        <ele>1154</ele>
        <time>2022-06-04T17:06:20Z</time>
      </trkpt>
      <trkpt lat="44.65834" lon="3.64857">
        <ele>1155</ele>
        <time>2022-06-04T17:06:28Z</time>
      </trkpt>
      <trkpt lat="44.65808" lon="3.64822">
        <ele>1156</ele>
        <time>2022-06-04T17:06:34Z</time>
      </trkpt>
      <trkpt lat="44.65779" lon="3.64803">
        <ele>1158</ele>
        <time>2022-06-04T17:06:40Z</time>
      </trkpt>
      <trkpt lat="44.65723" lon="3.64792">
        <ele>1159</ele>
        <time>2022-06-04T17:06:50Z</time>
      </trkpt>
      <trkpt lat="44.65704" lon="3.64777">
        <ele>1160</ele>
        <time>2022-06-04T17:06:54Z</time>
      </trkpt>
      <trkpt lat="44.65648" lon="3.64726">
        <ele>1160</ele>
        <time>2022-06-04T17:07:06Z</time>
      </trkpt>
      <trkpt lat="44.656" lon="3.64667">
        <ele>1159</ele>
        <time>2022-06-04T17:07:17Z</time>
      </trkpt>
      <trkpt lat="44.65585" lon="3.64635">
        <ele>1158</ele>
        <time>2022-06-04T17:07:22Z</time>
      </trkpt>
      <trkpt lat="44.65557" lon="3.64564">
        <ele>1161</ele>
        <time>2022-06-04T17:07:32Z</time>
      </trkpt>
      <trkpt lat="44.6553" lon="3.64524">
        <ele>1162</ele>
        <time>2022-06-04T17:07:39Z</time>
      </trkpt>
      <trkpt lat="44.65482" lon="3.64492">
        <ele>1161</ele>
        <time>2022-06-04T17:07:49Z</time>
      </trkpt>
      <trkpt lat="44.65455" lon="3.64461">
        <ele>1163</ele>
        <time>2022-06-04T17:07:55Z</time>
      </trkpt>
      <trkpt lat="44.65444" lon="3.64413">
        <ele>1165</ele>
        <time>2022-06-04T17:08:01Z</time>
      </trkpt>
      <trkpt lat="44.65368" lon="3.64297">
        <ele>1165</ele>
        <time>2022-06-04T17:08:21Z</time>
      </trkpt>
      <trkpt lat="44.65354" lon="3.64255">
        <ele>1165</ele>
        <time>2022-06-04T17:08:27Z</time>
      </trkpt>
      <trkpt lat="44.65351" lon="3.64204">
        <ele>1167</ele>
        <time>2022-06-04T17:08:34Z</time>
      </trkpt>
      <trkpt lat="44.65361" lon="3.64152">
        <ele>1169</ele>
        <time>2022-06-04T17:08:40Z</time>
      </trkpt>
      <trkpt lat="44.65377" lon="3.64089">
        <ele>1167</ele>
        <time>2022-06-04T17:08:49Z</time>
      </trkpt>
      <trkpt lat="44.65393" lon="3.64059">
        <ele>1167</ele>
        <time>2022-06-04T17:08:54Z</time>
      </trkpt>
      <trkpt lat="44.65437" lon="3.6402">
        <ele>1168</ele>
        <time>2022-06-04T17:09:03Z</time>
      </trkpt>
      <trkpt lat="44.65479" lon="3.63977">
        <ele>1169</ele>
        <time>2022-06-04T17:09:12Z</time>
      </trkpt>
      <trkpt lat="44.65506" lon="3.63942">
        <ele>1168</ele>
        <time>2022-06-04T17:09:19Z</time>
      </trkpt>
      <trkpt lat="44.65527" lon="3.63919">
        <ele>1168</ele>
        <time>2022-06-04T17:09:23Z</time>
      </trkpt>
      <trkpt lat="44.65599" lon="3.63853">
        <ele>1169</ele>
        <time>2022-06-04T17:09:39Z</time>
      </trkpt>
      <trkpt lat="44.65624" lon="3.63837">
        <ele>1169</ele>
        <time>2022-06-04T17:09:44Z</time>
      </trkpt>
      <trkpt lat="44.6565" lon="3.63827">
        <ele>1169</ele>
        <time>2022-06-04T17:09:48Z</time>
      </trkpt>
      <trkpt lat="44.65675" lon="3.63823">
        <ele>1169</ele>
        <time>2022-06-04T17:09:53Z</time>
      </trkpt>
      <trkpt lat="44.65728" lon="3.63822">
        <ele>1169</ele>
        <time>2022-06-04T17:10:02Z</time>
      </trkpt>
      <trkpt lat="44.65755" lon="3.63812">
        <ele>1169</ele>
        <time>2022-06-04T17:10:07Z</time>
      </trkpt>
      <trkpt lat="44.6601" lon="3.63661">
        <ele>1170</ele>
        <time>2022-06-04T17:10:56Z</time>
      </trkpt>
      <trkpt lat="44.66028" lon="3.63645">
        <ele>1171</ele>
        <time>2022-06-04T17:11:00Z</time>
      </trkpt>
      <trkpt lat="44.66145" lon="3.63499">
        <ele>1174</ele>
        <time>2022-06-04T17:11:28Z</time>
      </trkpt>
      <trkpt lat="44.6615" lon="3.63486">
        <ele>1175</ele>
        <time>2022-06-04T17:11:30Z</time>
      </trkpt>
      <trkpt lat="44.66152" lon="3.63475">
        <ele>1175</ele>
        <time>2022-06-04T17:11:31Z</time>
      </trkpt>
      <trkpt lat="44.66152" lon="3.63458">
        <ele>1175</ele>
        <time>2022-06-04T17:11:34Z</time>
      </trkpt>
      <trkpt lat="44.66101" lon="3.63272">
        <ele>1177</ele>
        <time>2022-06-04T17:11:59Z</time>
      </trkpt>
      <trkpt lat="44.66065" lon="3.63134">
        <ele>1181</ele>
        <time>2022-06-04T17:12:17Z</time>
      </trkpt>
      <trkpt lat="44.66044" lon="3.6307">
        <ele>1186</ele>
        <time>2022-06-04T17:12:26Z</time>
      </trkpt>
      <trkpt lat="44.66036" lon="3.63056">
        <ele>1187</ele>
        <time>2022-06-04T17:12:29Z</time>
      </trkpt>
      <trkpt lat="44.6599" lon="3.63012">
        <ele>1186</ele>
        <time>2022-06-04T17:12:38Z</time>
      </trkpt>
      <trkpt lat="44.65986" lon="3.63004">
        <ele>1187</ele>
        <time>2022-06-04T17:12:40Z</time>
      </trkpt>
      <trkpt lat="44.65986" lon="3.62979">
        <ele>1188</ele>
        <time>2022-06-04T17:12:43Z</time>
      </trkpt>
      <trkpt lat="44.66015" lon="3.62913">
        <ele>1195</ele>
        <time>2022-06-04T17:12:53Z</time>
      </trkpt>
      <trkpt lat="44.66075" lon="3.62591">
        <ele>1209</ele>
        <time>2022-06-04T17:13:35Z</time>
      </trkpt>
      <trkpt lat="44.66074" lon="3.62533">
        <ele>1210</ele>
        <time>2022-06-04T17:13:42Z</time>
      </trkpt>
      <trkpt lat="44.66069" lon="3.62483">
        <ele>1210</ele>
        <time>2022-06-04T17:13:49Z</time>
      </trkpt>
      <trkpt lat="44.66073" lon="3.62438">
        <ele>1210</ele>
        <time>2022-06-04T17:13:54Z</time>
      </trkpt>
      <trkpt lat="44.6609" lon="3.62372">
        <ele>1213</ele>
        <time>2022-06-04T17:14:03Z</time>
      </trkpt>
      <trkpt lat="44.66244" lon="3.61981">
        <ele>1235</ele>
        <time>2022-06-04T17:15:00Z</time>
      </trkpt>
      <trkpt lat="44.66274" lon="3.61889">
        <ele>1239</ele>
        <time>2022-06-04T17:15:13Z</time>
      </trkpt>
      <trkpt lat="44.66281" lon="3.61856">
        <ele>1241</ele>
        <time>2022-06-04T17:15:17Z</time>
      </trkpt>
      <trkpt lat="44.66301" lon="3.61686">
        <ele>1246</ele>
        <time>2022-06-04T17:15:39Z</time>
      </trkpt>
      <trkpt lat="44.66329" lon="3.61476">
        <ele>1248</ele>
        <time>2022-06-04T17:16:06Z</time>
      </trkpt>
      <trkpt lat="44.66328" lon="3.61447">
        <ele>1248</ele>
        <time>2022-06-04T17:16:09Z</time>
      </trkpt>
      <trkpt lat="44.66314" lon="3.61343">
        <ele>1248</ele>
        <time>2022-06-04T17:16:23Z</time>
      </trkpt>
      <trkpt lat="44.66313" lon="3.61238">
        <ele>1249</ele>
        <time>2022-06-04T17:16:36Z</time>
      </trkpt>
      <trkpt lat="44.66315" lon="3.61162">
        <ele>1248</ele>
        <time>2022-06-04T17:16:46Z</time>
      </trkpt>
      <trkpt lat="44.66321" lon="3.61134">
        <ele>1247</ele>
        <time>2022-06-04T17:16:49Z</time>
      </trkpt>
      <trkpt lat="44.6633" lon="3.61107">
        <ele>1246</ele>
        <time>2022-06-04T17:16:53Z</time>
      </trkpt>
      <trkpt lat="44.66407" lon="3.6094">
        <ele>1250</ele>
        <time>2022-06-04T17:17:18Z</time>
      </trkpt>
      <trkpt lat="44.66467" lon="3.60807">
        <ele>1250</ele>
        <time>2022-06-04T17:17:38Z</time>
      </trkpt>
      <trkpt lat="44.66493" lon="3.60677">
        <ele>1250</ele>
        <time>2022-06-04T17:17:55Z</time>
      </trkpt>
      <trkpt lat="44.6651" lon="3.60647">
        <ele>1251</ele>
        <time>2022-06-04T17:18:00Z</time>
      </trkpt>
      <trkpt lat="44.66517" lon="3.60614">
        <ele>1254</ele>
        <time>2022-06-04T17:18:05Z</time>
      </trkpt>
      <trkpt lat="44.66507" lon="3.60559">
        <ele>1256</ele>
        <time>2022-06-04T17:18:12Z</time>
      </trkpt>
      <trkpt lat="44.66498" lon="3.60471">
        <ele>1261</ele>
        <time>2022-06-04T17:18:23Z</time>
      </trkpt>
      <trkpt lat="44.66484" lon="3.60434">
        <ele>1263</ele>
        <time>2022-06-04T17:18:28Z</time>
      </trkpt>
      <trkpt lat="44.66466" lon="3.60409">
        <ele>1262</ele>
        <time>2022-06-04T17:18:33Z</time>
      </trkpt>
      <trkpt lat="44.66443" lon="3.60401">
        <ele>1259</ele>
        <time>2022-06-04T17:18:37Z</time>
      </trkpt>
      <trkpt lat="44.66426" lon="3.60391">
        <ele>1258</ele>
        <time>2022-06-04T17:18:40Z</time>
      </trkpt>
      <trkpt lat="44.6642" lon="3.60362">
        <ele>1258</ele>
        <time>2022-06-04T17:18:44Z</time>
      </trkpt>
      <trkpt lat="44.66424" lon="3.6033">
        <ele>1260</ele>
        <time>2022-06-04T17:18:48Z</time>
      </trkpt>
      <trkpt lat="44.6648" lon="3.60268">
        <ele>1265</ele>
        <time>2022-06-04T17:19:01Z</time>
      </trkpt>
      <trkpt lat="44.6654" lon="3.60196">
        <ele>1270</ele>
        <time>2022-06-04T17:19:15Z</time>
      </trkpt>
      <trkpt lat="44.66636" lon="3.60061">
        <ele>1276</ele>
        <time>2022-06-04T17:19:39Z</time>
      </trkpt>
      <trkpt lat="44.66651" lon="3.60018">
        <ele>1276</ele>
        <time>2022-06-04T17:19:45Z</time>
      </trkpt>
      <trkpt lat="44.66665" lon="3.59929">
        <ele>1274</ele>
        <time>2022-06-04T17:19:57Z</time>
      </trkpt>
      <trkpt lat="44.66682" lon="3.59891">
        <ele>1274</ele>
        <time>2022-06-04T17:20:02Z</time>
      </trkpt>
      <trkpt lat="44.66725" lon="3.59815">
        <ele>1274</ele>
        <time>2022-06-04T17:20:15Z</time>
      </trkpt>
      <trkpt lat="44.66739" lon="3.59776">
        <ele>1274</ele>
        <time>2022-06-04T17:20:20Z</time>
      </trkpt>
      <trkpt lat="44.66774" lon="3.596">
        <ele>1277</ele>
        <time>2022-06-04T17:20:43Z</time>
      </trkpt>
      <trkpt lat="44.66777" lon="3.59558">
        <ele>1277</ele>
        <time>2022-06-04T17:20:49Z</time>
      </trkpt>
      <trkpt lat="44.66781" lon="3.59521">
        <ele>1278</ele>
        <time>2022-06-04T17:20:53Z</time>
      </trkpt>
      <trkpt lat="44.6679" lon="3.59473">
        <ele>1279</ele>
        <time>2022-06-04T17:21:00Z</time>
      </trkpt>
      <trkpt lat="44.66846" lon="3.59271">
        <ele>1281</ele>
        <time>2022-06-04T17:21:27Z</time>
      </trkpt>
      <trkpt lat="44.66867" lon="3.59209">
        <ele>1283</ele>
        <time>2022-06-04T17:21:36Z</time>
      </trkpt>
      <trkpt lat="44.66873" lon="3.59184">
        <ele>1283</ele>
        <time>2022-06-04T17:21:39Z</time>
      </trkpt>
      <trkpt lat="44.66872" lon="3.59173">
        <ele>1283</ele>
        <time>2022-06-04T17:21:41Z</time>
      </trkpt>
      <trkpt lat="44.66869" lon="3.59164">
        <ele>1282</ele>
        <time>2022-06-04T17:21:42Z</time>
      </trkpt>
      <trkpt lat="44.66863" lon="3.59157">
        <ele>1282</ele>
        <time>2022-06-04T17:21:43Z</time>
      </trkpt>
      <trkpt lat="44.66849" lon="3.5915">
        <ele>1281</ele>
        <time>2022-06-04T17:21:46Z</time>
      </trkpt>
      <trkpt lat="44.66832" lon="3.59135">
        <ele>1280</ele>
        <time>2022-06-04T17:21:49Z</time>
      </trkpt>
      <trkpt lat="44.66824" lon="3.59119">
        <ele>1282</ele>
        <time>2022-06-04T17:21:52Z</time>
      </trkpt>
      <trkpt lat="44.66822" lon="3.59104">
        <ele>1282</ele>
        <time>2022-06-04T17:21:54Z</time>
      </trkpt>
      <trkpt lat="44.66822" lon="3.59087">
        <ele>1283</ele>
        <time>2022-06-04T17:21:56Z</time>
      </trkpt>
      <trkpt lat="44.66869" lon="3.58823">
        <ele>1291</ele>
        <time>2022-06-04T17:22:30Z</time>
      </trkpt>
      <trkpt lat="44.66895" lon="3.5875">
        <ele>1293</ele>
        <time>2022-06-04T17:22:41Z</time>
      </trkpt>
      <trkpt lat="44.66906" lon="3.58706">
        <ele>1295</ele>
        <time>2022-06-04T17:22:47Z</time>
      </trkpt>
      <trkpt lat="44.66921" lon="3.58628">
        <ele>1297</ele>
        <time>2022-06-04T17:22:57Z</time>
      </trkpt>
      <trkpt lat="44.66924" lon="3.58599">
        <ele>1298</ele>
        <time>2022-06-04T17:23:01Z</time>
      </trkpt>
      <trkpt lat="44.66924" lon="3.58468">
        <ele>1301</ele>
        <time>2022-06-04T17:23:17Z</time>
      </trkpt>
      <trkpt lat="44.66912" lon="3.58416">
        <ele>1305</ele>
        <time>2022-06-04T17:23:24Z</time>
      </trkpt>
      <trkpt lat="44.66913" lon="3.58398">
        <ele>1306</ele>
        <time>2022-06-04T17:23:26Z</time>
      </trkpt>
      <trkpt lat="44.66916" lon="3.5838">
        <ele>1308</ele>
        <time>2022-06-04T17:23:29Z</time>
      </trkpt>
      <trkpt lat="44.66948" lon="3.58256">
        <ele>1311</ele>
        <time>2022-06-04T17:23:45Z</time>
      </trkpt>
      <trkpt lat="44.66953" lon="3.58223">
        <ele>1311</ele>
        <time>2022-06-04T17:23:50Z</time>
      </trkpt>
      <trkpt lat="44.66954" lon="3.58194">
        <ele>1311</ele>
        <time>2022-06-04T17:23:53Z</time>
      </trkpt>
      <trkpt lat="44.66953" lon="3.58166">
        <ele>1311</ele>
        <time>2022-06-04T17:23:57Z</time>
      </trkpt>
      <trkpt lat="44.66948" lon="3.5813">
        <ele>1313</ele>
        <time>2022-06-04T17:24:02Z</time>
      </trkpt>
      <trkpt lat="44.66931" lon="3.58081">
        <ele>1315</ele>
        <time>2022-06-04T17:24:08Z</time>
      </trkpt>
      <trkpt lat="44.66917" lon="3.57984">
        <ele>1316</ele>
        <time>2022-06-04T17:24:21Z</time>
      </trkpt>
      <trkpt lat="44.66925" lon="3.57957">
        <ele>1317</ele>
        <time>2022-06-04T17:24:25Z</time>
      </trkpt>
      <trkpt lat="44.66957" lon="3.57906">
        <ele>1316</ele>
        <time>2022-06-04T17:24:33Z</time>
      </trkpt>
      <trkpt lat="44.66977" lon="3.57846">
        <ele>1317</ele>
        <time>2022-06-04T17:24:42Z</time>
      </trkpt>
      <trkpt lat="44.66978" lon="3.57786">
        <ele>1320</ele>
        <time>2022-06-04T17:24:49Z</time>
      </trkpt>
      <trkpt lat="44.66972" lon="3.57713">
        <ele>1323</ele>
        <time>2022-06-04T17:24:59Z</time>
      </trkpt>
      <trkpt lat="44.66959" lon="3.57638">
        <ele>1325</ele>
        <time>2022-06-04T17:25:08Z</time>
      </trkpt>
      <trkpt lat="44.66939" lon="3.57575">
        <ele>1330</ele>
        <time>2022-06-04T17:25:17Z</time>
      </trkpt>
      <trkpt lat="44.66928" lon="3.5752">
        <ele>1331</ele>
        <time>2022-06-04T17:25:24Z</time>
      </trkpt>
      <trkpt lat="44.66907" lon="3.57446">
        <ele>1331</ele>
        <time>2022-06-04T17:25:34Z</time>
      </trkpt>
      <trkpt lat="44.66885" lon="3.57414">
        <ele>1332</ele>
        <time>2022-06-04T17:25:40Z</time>
      </trkpt>
      <trkpt lat="44.66808" lon="3.57317">
        <ele>1335</ele>
        <time>2022-06-04T17:25:58Z</time>
      </trkpt>
      <trkpt lat="44.66796" lon="3.57291">
        <ele>1337</ele>
        <time>2022-06-04T17:26:02Z</time>
      </trkpt>
      <trkpt lat="44.66794" lon="3.57276">
        <ele>1337</ele>
        <time>2022-06-04T17:26:04Z</time>
      </trkpt>
      <trkpt lat="44.66797" lon="3.57258">
        <ele>1337</ele>
        <time>2022-06-04T17:26:07Z</time>
      </trkpt>
      <trkpt lat="44.66803" lon="3.57242">
        <ele>1338</ele>
        <time>2022-06-04T17:26:09Z</time>
      </trkpt>
      <trkpt lat="44.66812" lon="3.5723">
        <ele>1339</ele>
        <time>2022-06-04T17:26:11Z</time>
      </trkpt>
      <trkpt lat="44.66868" lon="3.57204">
        <ele>1340</ele>
        <time>2022-06-04T17:26:22Z</time>
      </trkpt>
      <trkpt lat="44.66888" lon="3.57175">
        <ele>1342</ele>
        <time>2022-06-04T17:26:27Z</time>
      </trkpt>
      <trkpt lat="44.66903" lon="3.57146">
        <ele>1345</ele>
        <time>2022-06-04T17:26:31Z</time>
      </trkpt>
      <trkpt lat="44.66999" lon="3.57026">
        <ele>1353</ele>
        <time>2022-06-04T17:26:54Z</time>
      </trkpt>
      <trkpt lat="44.67048" lon="3.5701">
        <ele>1353</ele>
        <time>2022-06-04T17:27:03Z</time>
      </trkpt>
      <trkpt lat="44.67079" lon="3.56993">
        <ele>1354</ele>
        <time>2022-06-04T17:27:09Z</time>
      </trkpt>
      <trkpt lat="44.67113" lon="3.56958">
        <ele>1355</ele>
        <time>2022-06-04T17:27:16Z</time>
      </trkpt>
      <trkpt lat="44.67153" lon="3.56887">
        <ele>1360</ele>
        <time>2022-06-04T17:27:28Z</time>
      </trkpt>
      <trkpt lat="44.67211" lon="3.56567">
        <ele>1374</ele>
        <time>2022-06-04T17:28:10Z</time>
      </trkpt>
      <trkpt lat="44.67213" lon="3.56456">
        <ele>1379</ele>
        <time>2022-06-04T17:28:24Z</time>
      </trkpt>
      <trkpt lat="44.67206" lon="3.56402">
        <ele>1381</ele>
        <time>2022-06-04T17:28:31Z</time>
      </trkpt>
      <trkpt lat="44.67155" lon="3.56235">
        <ele>1390</ele>
        <time>2022-06-04T17:28:54Z</time>
      </trkpt>
      <trkpt lat="44.67088" lon="3.56048">
        <ele>1392</ele>
        <time>2022-06-04T17:29:20Z</time>
      </trkpt>
      <trkpt lat="44.66957" lon="3.55691">
        <ele>1411</ele>
        <time>2022-06-04T17:30:11Z</time>
      </trkpt>
      <trkpt lat="44.66959" lon="3.55661">
        <ele>1411</ele>
        <time>2022-06-04T17:30:15Z</time>
      </trkpt>
      <trkpt lat="44.66971" lon="3.55644">
        <ele>1411</ele>
        <time>2022-06-04T17:30:18Z</time>
      </trkpt>
      <trkpt lat="44.67011" lon="3.5563">
        <ele>1409</ele>
        <time>2022-06-04T17:30:25Z</time>
      </trkpt>
      <trkpt lat="44.67032" lon="3.55614">
        <ele>1409</ele>
        <time>2022-06-04T17:30:29Z</time>
      </trkpt>
      <trkpt lat="44.67056" lon="3.55555">
        <ele>1410</ele>
        <time>2022-06-04T17:30:38Z</time>
      </trkpt>
      <trkpt lat="44.67153" lon="3.55207">
        <ele>1420</ele>
        <time>2022-06-04T17:31:25Z</time>
      </trkpt>
      <trkpt lat="44.67159" lon="3.55178">
        <ele>1420</ele>
        <time>2022-06-04T17:31:29Z</time>
      </trkpt>
      <trkpt lat="44.67162" lon="3.55141">
        <ele>1420</ele>
        <time>2022-06-04T17:31:34Z</time>
      </trkpt>
      <trkpt lat="44.67159" lon="3.55112">
        <ele>1421</ele>
        <time>2022-06-04T17:31:38Z</time>
      </trkpt>
      <trkpt lat="44.67153" lon="3.55081">
        <ele>1422</ele>
        <time>2022-06-04T17:31:42Z</time>
      </trkpt>
      <trkpt lat="44.67141" lon="3.55047">
        <ele>1424</ele>
        <time>2022-06-04T17:31:46Z</time>
      </trkpt>
      <trkpt lat="44.67128" lon="3.55016">
        <ele>1425</ele>
        <time>2022-06-04T17:31:51Z</time>
      </trkpt>
      <trkpt lat="44.67115" lon="3.54991">
        <ele>1426</ele>
        <time>2022-06-04T17:31:55Z</time>
      </trkpt>
      <trkpt lat="44.6704" lon="3.54899">
        <ele>1431</ele>
        <time>2022-06-04T17:32:13Z</time>
      </trkpt>
      <trkpt lat="44.66919" lon="3.54765">
        <ele>1440</ele>
        <time>2022-06-04T17:32:40Z</time>
      </trkpt>
      <trkpt lat="44.66889" lon="3.54735">
        <ele>1441</ele>
        <time>2022-06-04T17:32:47Z</time>
      </trkpt>
      <trkpt lat="44.66851" lon="3.54707">
        <ele>1443</ele>
        <time>2022-06-04T17:32:54Z</time>
      </trkpt>
      <trkpt lat="44.66837" lon="3.547">
        <ele>1443</ele>
        <time>2022-06-04T17:32:57Z</time>
      </trkpt>
      <trkpt lat="44.66824" lon="3.54696">
        <ele>1444</ele>
        <time>2022-06-04T17:32:59Z</time>
      </trkpt>
      <trkpt lat="44.6681" lon="3.54697">
        <ele>1445</ele>
        <time>2022-06-04T17:33:02Z</time>
      </trkpt>
      <trkpt lat="44.66776" lon="3.54711">
        <ele>1447</ele>
        <time>2022-06-04T17:33:08Z</time>
      </trkpt>
      <trkpt lat="44.66763" lon="3.54707">
        <ele>1448</ele>
        <time>2022-06-04T17:33:10Z</time>
      </trkpt>
      <trkpt lat="44.66754" lon="3.54701">
        <ele>1448</ele>
        <time>2022-06-04T17:33:12Z</time>
      </trkpt>
      <trkpt lat="44.6673" lon="3.54675">
        <ele>1448</ele>
        <time>2022-06-04T17:33:18Z</time>
      </trkpt>
      <trkpt lat="44.66694" lon="3.54607">
        <ele>1447</ele>
        <time>2022-06-04T17:33:28Z</time>
      </trkpt>
      <trkpt lat="44.6666" lon="3.54533">
        <ele>1449</ele>
        <time>2022-06-04T17:33:39Z</time>
      </trkpt>
      <trkpt lat="44.66656" lon="3.54518">
        <ele>1449</ele>
        <time>2022-06-04T17:33:41Z</time>
      </trkpt>
      <trkpt lat="44.66654" lon="3.54501">
        <ele>1449</ele>
        <time>2022-06-04T17:33:44Z</time>
      </trkpt>
      <trkpt lat="44.66657" lon="3.5449">
        <ele>1450</ele>
        <time>2022-06-04T17:33:45Z</time>
      </trkpt>
      <trkpt lat="44.66664" lon="3.54478">
        <ele>1450</ele>
        <time>2022-06-04T17:33:47Z</time>
      </trkpt>
      <trkpt lat="44.66673" lon="3.54471">
        <ele>1450</ele>
        <time>2022-06-04T17:33:49Z</time>
      </trkpt>
      <trkpt lat="44.66684" lon="3.54468">
        <ele>1449</ele>
        <time>2022-06-04T17:33:51Z</time>
      </trkpt>
      <trkpt lat="44.66729" lon="3.54468">
        <ele>1447</ele>
        <time>2022-06-04T17:33:59Z</time>
      </trkpt>
      <trkpt lat="44.66744" lon="3.54464">
        <ele>1447</ele>
        <time>2022-06-04T17:34:02Z</time>
      </trkpt>
      <trkpt lat="44.66758" lon="3.54457">
        <ele>1447</ele>
        <time>2022-06-04T17:34:04Z</time>
      </trkpt>
      <trkpt lat="44.66768" lon="3.54446">
        <ele>1448</ele>
        <time>2022-06-04T17:34:07Z</time>
      </trkpt>
      <trkpt lat="44.66777" lon="3.54432">
        <ele>1449</ele>
        <time>2022-06-04T17:34:09Z</time>
      </trkpt>
      <trkpt lat="44.66786" lon="3.54413">
        <ele>1451</ele>
        <time>2022-06-04T17:34:12Z</time>
      </trkpt>
      <trkpt lat="44.66793" lon="3.54394">
        <ele>1452</ele>
        <time>2022-06-04T17:34:15Z</time>
      </trkpt>
      <trkpt lat="44.66796" lon="3.54369">
        <ele>1453</ele>
        <time>2022-06-04T17:34:18Z</time>
      </trkpt>
      <trkpt lat="44.66798" lon="3.54335">
        <ele>1454</ele>
        <time>2022-06-04T17:34:22Z</time>
      </trkpt>
      <trkpt lat="44.66791" lon="3.54241">
        <ele>1452</ele>
        <time>2022-06-04T17:34:34Z</time>
      </trkpt>
      <trkpt lat="44.66776" lon="3.54176">
        <ele>1449</ele>
        <time>2022-06-04T17:34:43Z</time>
      </trkpt>
      <trkpt lat="44.66751" lon="3.54088">
        <ele>1447</ele>
        <time>2022-06-04T17:34:55Z</time>
      </trkpt>
      <trkpt lat="44.6674" lon="3.54042">
        <ele>1444</ele>
        <time>2022-06-04T17:35:01Z</time>
      </trkpt>
      <trkpt lat="44.66736" lon="3.54006">
        <ele>1442</ele>
        <time>2022-06-04T17:35:05Z</time>
      </trkpt>
      <trkpt lat="44.66738" lon="3.53973">
        <ele>1440</ele>
        <time>2022-06-04T17:35:10Z</time>
      </trkpt>
      <trkpt lat="44.66745" lon="3.53935">
        <ele>1438</ele>
        <time>2022-06-04T17:35:15Z</time>
      </trkpt>
      <trkpt lat="44.66747" lon="3.53911">
        <ele>1437</ele>
        <time>2022-06-04T17:35:18Z</time>
      </trkpt>
      <trkpt lat="44.66746" lon="3.53825">
        <ele>1432</ele>
        <time>2022-06-04T17:35:29Z</time>
      </trkpt>
      <trkpt lat="44.66749" lon="3.53805">
        <ele>1432</ele>
        <time>2022-06-04T17:35:31Z</time>
      </trkpt>
      <trkpt lat="44.66755" lon="3.53783">
        <ele>1431</ele>
        <time>2022-06-04T17:35:34Z</time>
      </trkpt>
      <trkpt lat="44.66781" lon="3.53711">
        <ele>1427</ele>
        <time>2022-06-04T17:35:44Z</time>
      </trkpt>
      <trkpt lat="44.66784" lon="3.53693">
        <ele>1426</ele>
        <time>2022-06-04T17:35:47Z</time>
      </trkpt>
      <trkpt lat="44.66784" lon="3.53674">
        <ele>1424</ele>
        <time>2022-06-04T17:35:49Z</time>
      </trkpt>
      <trkpt lat="44.66775" lon="3.53547">
        <ele>1417</ele>
        <time>2022-06-04T17:36:05Z</time>
      </trkpt>
      <trkpt lat="44.6677" lon="3.53504">
        <ele>1414</ele>
        <time>2022-06-04T17:36:11Z</time>
      </trkpt>
      <trkpt lat="44.66765" lon="3.5347">
        <ele>1412</ele>
        <time>2022-06-04T17:36:15Z</time>
      </trkpt>
      <trkpt lat="44.66741" lon="3.53362">
        <ele>1407</ele>
        <time>2022-06-04T17:36:29Z</time>
      </trkpt>
      <trkpt lat="44.66737" lon="3.53331">
        <ele>1406</ele>
        <time>2022-06-04T17:36:33Z</time>
      </trkpt>
      <trkpt lat="44.66734" lon="3.53301">
        <ele>1405</ele>
        <time>2022-06-04T17:36:37Z</time>
      </trkpt>
      <trkpt lat="44.66737" lon="3.53281">
        <ele>1404</ele>
        <time>2022-06-04T17:36:40Z</time>
      </trkpt>
      <trkpt lat="44.66746" lon="3.53236">
        <ele>1402</ele>
        <time>2022-06-04T17:36:46Z</time>
      </trkpt>
      <trkpt lat="44.66751" lon="3.53171">
        <ele>1397</ele>
        <time>2022-06-04T17:36:54Z</time>
      </trkpt>
      <trkpt lat="44.66755" lon="3.53157">
        <ele>1396</ele>
        <time>2022-06-04T17:36:56Z</time>
      </trkpt>
      <trkpt lat="44.66763" lon="3.53138">
        <ele>1394</ele>
        <time>2022-06-04T17:36:59Z</time>
      </trkpt>
      <trkpt lat="44.66777" lon="3.53116">
        <ele>1392</ele>
        <time>2022-06-04T17:37:02Z</time>
      </trkpt>
      <trkpt lat="44.66797" lon="3.53093">
        <ele>1390</ele>
        <time>2022-06-04T17:37:07Z</time>
      </trkpt>
      <trkpt lat="44.66814" lon="3.53078">
        <ele>1389</ele>
        <time>2022-06-04T17:37:11Z</time>
      </trkpt>
      <trkpt lat="44.66836" lon="3.53061">
        <ele>1387</ele>
        <time>2022-06-04T17:37:15Z</time>
      </trkpt>
      <trkpt lat="44.66856" lon="3.53042">
        <ele>1385</ele>
        <time>2022-06-04T17:37:19Z</time>
      </trkpt>
      <trkpt lat="44.66897" lon="3.5298">
        <ele>1382</ele>
        <time>2022-06-04T17:37:30Z</time>
      </trkpt>
      <trkpt lat="44.66922" lon="3.52936">
        <ele>1379</ele>
        <time>2022-06-04T17:37:37Z</time>
      </trkpt>
      <trkpt lat="44.66924" lon="3.52903">
        <ele>1378</ele>
        <time>2022-06-04T17:37:41Z</time>
      </trkpt>
      <trkpt lat="44.66934" lon="3.52872">
        <ele>1378</ele>
        <time>2022-06-04T17:37:46Z</time>
      </trkpt>
      <trkpt lat="44.66962" lon="3.52826">
        <ele>1375</ele>
        <time>2022-06-04T17:37:53Z</time>
      </trkpt>
      <trkpt lat="44.66999" lon="3.52781">
        <ele>1370</ele>
        <time>2022-06-04T17:38:02Z</time>
      </trkpt>
      <trkpt lat="44.67032" lon="3.52671">
        <ele>1365</ele>
        <time>2022-06-04T17:38:17Z</time>
      </trkpt>
      <trkpt lat="44.67061" lon="3.52629">
        <ele>1360</ele>
        <time>2022-06-04T17:38:25Z</time>
      </trkpt>
      <trkpt lat="44.67117" lon="3.52571">
        <ele>1352</ele>
        <time>2022-06-04T17:38:37Z</time>
      </trkpt>
      <trkpt lat="44.67139" lon="3.52541">
        <ele>1348</ele>
        <time>2022-06-04T17:38:42Z</time>
      </trkpt>
      <trkpt lat="44.67149" lon="3.52493">
        <ele>1347</ele>
        <time>2022-06-04T17:38:49Z</time>
      </trkpt>
      <trkpt lat="44.67139" lon="3.52341">
        <ele>1339</ele>
        <time>2022-06-04T17:39:08Z</time>
      </trkpt>
      <trkpt lat="44.67125" lon="3.52295">
        <ele>1336</ele>
        <time>2022-06-04T17:39:14Z</time>
      </trkpt>
      <trkpt lat="44.67114" lon="3.52251">
        <ele>1333</ele>
        <time>2022-06-04T17:39:20Z</time>
      </trkpt>
      <trkpt lat="44.67099" lon="3.5222">
        <ele>1331</ele>
        <time>2022-06-04T17:39:25Z</time>
      </trkpt>
      <trkpt lat="44.6706" lon="3.52183">
        <ele>1329</ele>
        <time>2022-06-04T17:39:33Z</time>
      </trkpt>
      <trkpt lat="44.66973" lon="3.52075">
        <ele>1322</ele>
        <time>2022-06-04T17:39:54Z</time>
      </trkpt>
      <trkpt lat="44.66958" lon="3.52043">
        <ele>1321</ele>
        <time>2022-06-04T17:39:59Z</time>
      </trkpt>
      <trkpt lat="44.66961" lon="3.5201">
        <ele>1318</ele>
        <time>2022-06-04T17:40:03Z</time>
      </trkpt>
      <trkpt lat="44.6701" lon="3.51908">
        <ele>1307</ele>
        <time>2022-06-04T17:40:19Z</time>
      </trkpt>
      <trkpt lat="44.67016" lon="3.51866">
        <ele>1304</ele>
        <time>2022-06-04T17:40:24Z</time>
      </trkpt>
      <trkpt lat="44.67015" lon="3.51837">
        <ele>1303</ele>
        <time>2022-06-04T17:40:28Z</time>
      </trkpt>
      <trkpt lat="44.66999" lon="3.51799">
        <ele>1301</ele>
        <time>2022-06-04T17:40:33Z</time>
      </trkpt>
      <trkpt lat="44.66965" lon="3.51744">
        <ele>1297</ele>
        <time>2022-06-04T17:40:43Z</time>
      </trkpt>
      <trkpt lat="44.66886" lon="3.51662">
        <ele>1286</ele>
        <time>2022-06-04T17:41:00Z</time>
      </trkpt>
      <trkpt lat="44.66724" lon="3.51566">
        <ele>1273</ele>
        <time>2022-06-04T17:41:31Z</time>
      </trkpt>
      <trkpt lat="44.66626" lon="3.51358">
        <ele>1260</ele>
        <time>2022-06-04T17:42:03Z</time>
      </trkpt>
      <trkpt lat="44.66604" lon="3.51317">
        <ele>1258</ele>
        <time>2022-06-04T17:42:09Z</time>
      </trkpt>
      <trkpt lat="44.66597" lon="3.51298">
        <ele>1257</ele>
        <time>2022-06-04T17:42:12Z</time>
      </trkpt>
      <trkpt lat="44.66596" lon="3.51265">
        <ele>1253</ele>
        <time>2022-06-04T17:42:16Z</time>
      </trkpt>
      <trkpt lat="44.66599" lon="3.51155">
        <ele>1243</ele>
        <time>2022-06-04T17:42:30Z</time>
      </trkpt>
      <trkpt lat="44.666" lon="3.51104">
        <ele>1241</ele>
        <time>2022-06-04T17:42:37Z</time>
      </trkpt>
      <trkpt lat="44.66598" lon="3.51065">
        <ele>1239</ele>
        <time>2022-06-04T17:42:42Z</time>
      </trkpt>
      <trkpt lat="44.66594" lon="3.51035">
        <ele>1238</ele>
        <time>2022-06-04T17:42:46Z</time>
      </trkpt>
      <trkpt lat="44.66588" lon="3.51006">
        <ele>1236</ele>
        <time>2022-06-04T17:42:49Z</time>
      </trkpt>
      <trkpt lat="44.66542" lon="3.50855">
        <ele>1232</ele>
        <time>2022-06-04T17:43:10Z</time>
      </trkpt>
      <trkpt lat="44.66522" lon="3.50802">
        <ele>1230</ele>
        <time>2022-06-04T17:43:18Z</time>
      </trkpt>
      <trkpt lat="44.66521" lon="3.50794">
        <ele>1229</ele>
        <time>2022-06-04T17:43:19Z</time>
      </trkpt>
      <trkpt lat="44.66526" lon="3.50779">
        <ele>1229</ele>
        <time>2022-06-04T17:43:21Z</time>
      </trkpt>
      <trkpt lat="44.66547" lon="3.50759">
        <ele>1230</ele>
        <time>2022-06-04T17:43:25Z</time>
      </trkpt>
      <trkpt lat="44.66579" lon="3.50735">
        <ele>1230</ele>
        <time>2022-06-04T17:43:32Z</time>
      </trkpt>
      <trkpt lat="44.66591" lon="3.50723">
        <ele>1229</ele>
        <time>2022-06-04T17:43:34Z</time>
      </trkpt>
      <trkpt lat="44.66597" lon="3.50708">
        <ele>1227</ele>
        <time>2022-06-04T17:43:37Z</time>
      </trkpt>
      <trkpt lat="44.66601" lon="3.50699">
        <ele>1226</ele>
        <time>2022-06-04T17:43:38Z</time>
      </trkpt>
      <trkpt lat="44.66603" lon="3.50684">
        <ele>1224</ele>
        <time>2022-06-04T17:43:40Z</time>
      </trkpt>
      <trkpt lat="44.66601" lon="3.50662">
        <ele>1223</ele>
        <time>2022-06-04T17:43:43Z</time>
      </trkpt>
      <trkpt lat="44.66598" lon="3.50648">
        <ele>1222</ele>
        <time>2022-06-04T17:43:45Z</time>
      </trkpt>
      <trkpt lat="44.66585" lon="3.50612">
        <ele>1222</ele>
        <time>2022-06-04T17:43:50Z</time>
      </trkpt>
      <trkpt lat="44.66581" lon="3.50602">
        <ele>1222</ele>
        <time>2022-06-04T17:43:51Z</time>
      </trkpt>
      <trkpt lat="44.6658" lon="3.50598">
        <ele>1222</ele>
        <time>2022-06-04T17:43:52Z</time>
      </trkpt>
      <trkpt lat="44.66582" lon="3.5057">
        <ele>1222</ele>
        <time>2022-06-04T17:43:55Z</time>
      </trkpt>
      <trkpt lat="44.66586" lon="3.50543">
        <ele>1223</ele>
        <time>2022-06-04T17:43:59Z</time>
      </trkpt>
      <trkpt lat="44.66595" lon="3.50517">
        <ele>1223</ele>
        <time>2022-06-04T17:44:02Z</time>
      </trkpt>
      <trkpt lat="44.66608" lon="3.50493">
        <ele>1223</ele>
        <time>2022-06-04T17:44:06Z</time>
      </trkpt>
      <trkpt lat="44.66659" lon="3.50442">
        <ele>1222</ele>
        <time>2022-06-04T17:44:17Z</time>
      </trkpt>
      <trkpt lat="44.66742" lon="3.50364">
        <ele>1224</ele>
        <time>2022-06-04T17:44:35Z</time>
      </trkpt>
      <trkpt lat="44.66822" lon="3.50305">
        <ele>1221</ele>
        <time>2022-06-04T17:44:51Z</time>
      </trkpt>
      <trkpt lat="44.66842" lon="3.50283">
        <ele>1221</ele>
        <time>2022-06-04T17:44:56Z</time>
      </trkpt>
      <trkpt lat="44.66885" lon="3.50211">
        <ele>1224</ele>
        <time>2022-06-04T17:45:08Z</time>
      </trkpt>
      <trkpt lat="44.66927" lon="3.50122">
        <ele>1225</ele>
        <time>2022-06-04T17:45:21Z</time>
      </trkpt>
      <trkpt lat="44.66954" lon="3.50023">
        <ele>1223</ele>
        <time>2022-06-04T17:45:34Z</time>
      </trkpt>
      <trkpt lat="44.66956" lon="3.49943">
        <ele>1221</ele>
        <time>2022-06-04T17:45:45Z</time>
      </trkpt>
      <trkpt lat="44.66945" lon="3.49856">
        <ele>1219</ele>
        <time>2022-06-04T17:45:56Z</time>
      </trkpt>
      <trkpt lat="44.66926" lon="3.49753">
        <ele>1217</ele>
        <time>2022-06-04T17:46:09Z</time>
      </trkpt>
      <trkpt lat="44.66901" lon="3.49584">
        <ele>1209</ele>
        <time>2022-06-04T17:46:31Z</time>
      </trkpt>
      <trkpt lat="44.66895" lon="3.49513">
        <ele>1206</ele>
        <time>2022-06-04T17:46:40Z</time>
      </trkpt>
      <trkpt lat="44.66895" lon="3.49465">
        <ele>1204</ele>
        <time>2022-06-04T17:46:46Z</time>
      </trkpt>
      <trkpt lat="44.66911" lon="3.49391">
        <ele>1201</ele>
        <time>2022-06-04T17:46:56Z</time>
      </trkpt>
      <trkpt lat="44.66915" lon="3.49362">
        <ele>1201</ele>
        <time>2022-06-04T17:47:00Z</time>
      </trkpt>
      <trkpt lat="44.66915" lon="3.49346">
        <ele>1200</ele>
        <time>2022-06-04T17:47:02Z</time>
      </trkpt>
      <trkpt lat="44.66907" lon="3.49213">
        <ele>1195</ele>
        <time>2022-06-04T17:47:19Z</time>
      </trkpt>
      <trkpt lat="44.66895" lon="3.49171">
        <ele>1196</ele>
        <time>2022-06-04T17:47:24Z</time>
      </trkpt>
      <trkpt lat="44.66873" lon="3.49122">
        <ele>1197</ele>
        <time>2022-06-04T17:47:32Z</time>
      </trkpt>
      <trkpt lat="44.66862" lon="3.49122">
        <ele>1198</ele>
        <time>2022-06-04T17:47:34Z</time>
      </trkpt>
      <trkpt lat="44.66848" lon="3.49118">
        <ele>1198</ele>
        <time>2022-06-04T17:47:36Z</time>
      </trkpt>
      <trkpt lat="44.66834" lon="3.49108">
        <ele>1198</ele>
        <time>2022-06-04T17:47:39Z</time>
      </trkpt>
      <trkpt lat="44.66823" lon="3.49097">
        <ele>1198</ele>
        <time>2022-06-04T17:47:41Z</time>
      </trkpt>
      <trkpt lat="44.66808" lon="3.4906">
        <ele>1198</ele>
        <time>2022-06-04T17:47:47Z</time>
      </trkpt>
      <trkpt lat="44.66775" lon="3.48972">
        <ele>1194</ele>
        <time>2022-06-04T17:47:59Z</time>
      </trkpt>
      <trkpt lat="44.66763" lon="3.48949">
        <ele>1192</ele>
        <time>2022-06-04T17:48:03Z</time>
      </trkpt>
      <trkpt lat="44.66737" lon="3.4892">
        <ele>1190</ele>
        <time>2022-06-04T17:48:09Z</time>
      </trkpt>
      <trkpt lat="44.66692" lon="3.48881">
        <ele>1192</ele>
        <time>2022-06-04T17:48:18Z</time>
      </trkpt>
      <trkpt lat="44.6664" lon="3.48811">
        <ele>1188</ele>
        <time>2022-06-04T17:48:31Z</time>
      </trkpt>
      <trkpt lat="44.66625" lon="3.48799">
        <ele>1187</ele>
        <time>2022-06-04T17:48:34Z</time>
      </trkpt>
      <trkpt lat="44.6661" lon="3.48792">
        <ele>1187</ele>
        <time>2022-06-04T17:48:37Z</time>
      </trkpt>
      <trkpt lat="44.66594" lon="3.48789">
        <ele>1187</ele>
        <time>2022-06-04T17:48:40Z</time>
      </trkpt>
      <trkpt lat="44.66561" lon="3.48788">
        <ele>1187</ele>
        <time>2022-06-04T17:48:46Z</time>
      </trkpt>
      <trkpt lat="44.66534" lon="3.48791">
        <ele>1188</ele>
        <time>2022-06-04T17:48:51Z</time>
      </trkpt>
      <trkpt lat="44.66518" lon="3.4879">
        <ele>1188</ele>
        <time>2022-06-04T17:48:53Z</time>
      </trkpt>
      <trkpt lat="44.66462" lon="3.48758">
        <ele>1184</ele>
        <time>2022-06-04T17:49:04Z</time>
      </trkpt>
      <trkpt lat="44.66437" lon="3.48756">
        <ele>1184</ele>
        <time>2022-06-04T17:49:09Z</time>
      </trkpt>
      <trkpt lat="44.66408" lon="3.48759">
        <ele>1185</ele>
        <time>2022-06-04T17:49:14Z</time>
      </trkpt>
      <trkpt lat="44.6636" lon="3.4877">
        <ele>1187</ele>
        <time>2022-06-04T17:49:22Z</time>
      </trkpt>
      <trkpt lat="44.66341" lon="3.4877">
        <ele>1187</ele>
        <time>2022-06-04T17:49:26Z</time>
      </trkpt>
      <trkpt lat="44.66327" lon="3.48766">
        <ele>1188</ele>
        <time>2022-06-04T17:49:28Z</time>
      </trkpt>
      <trkpt lat="44.66311" lon="3.48755">
        <ele>1187</ele>
        <time>2022-06-04T17:49:32Z</time>
      </trkpt>
      <trkpt lat="44.66239" lon="3.48692">
        <ele>1186</ele>
        <time>2022-06-04T17:49:47Z</time>
      </trkpt>
      <trkpt lat="44.66223" lon="3.48683">
        <ele>1186</ele>
        <time>2022-06-04T17:49:50Z</time>
      </trkpt>
      <trkpt lat="44.66211" lon="3.48681">
        <ele>1186</ele>
        <time>2022-06-04T17:49:52Z</time>
      </trkpt>
      <trkpt lat="44.66127" lon="3.48682">
        <ele>1188</ele>
        <time>2022-06-04T17:50:07Z</time>
      </trkpt>
      <trkpt lat="44.66015" lon="3.48646">
        <ele>1186</ele>
        <time>2022-06-04T17:50:27Z</time>
      </trkpt>
      <trkpt lat="44.65994" lon="3.48644">
        <ele>1186</ele>
        <time>2022-06-04T17:50:31Z</time>
      </trkpt>
      <trkpt lat="44.6595" lon="3.48649">
        <ele>1186</ele>
        <time>2022-06-04T17:50:39Z</time>
      </trkpt>
      <trkpt lat="44.65864" lon="3.48669">
        <ele>1186</ele>
        <time>2022-06-04T17:50:54Z</time>
      </trkpt>
      <trkpt lat="44.65835" lon="3.48683">
        <ele>1185</ele>
        <time>2022-06-04T17:51:00Z</time>
      </trkpt>
      <trkpt lat="44.65782" lon="3.48743">
        <ele>1185</ele>
        <time>2022-06-04T17:51:12Z</time>
      </trkpt>
      <trkpt lat="44.65772" lon="3.48766">
        <ele>1184</ele>
        <time>2022-06-04T17:51:15Z</time>
      </trkpt>
      <trkpt lat="44.65769" lon="3.48792">
        <ele>1184</ele>
        <time>2022-06-04T17:51:19Z</time>
      </trkpt>
      <trkpt lat="44.65773" lon="3.48859">
        <ele>1187</ele>
        <time>2022-06-04T17:51:27Z</time>
      </trkpt>
      <trkpt lat="44.65769" lon="3.48895">
        <ele>1188</ele>
        <time>2022-06-04T17:51:32Z</time>
      </trkpt>
      <trkpt lat="44.65758" lon="3.48908">
        <ele>1187</ele>
        <time>2022-06-04T17:51:34Z</time>
      </trkpt>
      <trkpt lat="44.65744" lon="3.48917">
        <ele>1186</ele>
        <time>2022-06-04T17:51:37Z</time>
      </trkpt>
      <trkpt lat="44.65729" lon="3.48915">
        <ele>1187</ele>
        <time>2022-06-04T17:51:40Z</time>
      </trkpt>
      <trkpt lat="44.65715" lon="3.48902">
        <ele>1186</ele>
        <time>2022-06-04T17:51:43Z</time>
      </trkpt>
      <trkpt lat="44.6569" lon="3.4887">
        <ele>1184</ele>
        <time>2022-06-04T17:51:49Z</time>
      </trkpt>
      <trkpt lat="44.65669" lon="3.48856">
        <ele>1183</ele>
        <time>2022-06-04T17:51:53Z</time>
      </trkpt>
      <trkpt lat="44.65602" lon="3.48828">
        <ele>1185</ele>
        <time>2022-06-04T17:52:05Z</time>
      </trkpt>
      <trkpt lat="44.6558" lon="3.4881">
        <ele>1185</ele>
        <time>2022-06-04T17:52:10Z</time>
      </trkpt>
      <trkpt lat="44.65565" lon="3.48785">
        <ele>1184</ele>
        <time>2022-06-04T17:52:14Z</time>
      </trkpt>
      <trkpt lat="44.65551" lon="3.48742">
        <ele>1183</ele>
        <time>2022-06-04T17:52:20Z</time>
      </trkpt>
      <trkpt lat="44.65537" lon="3.48713">
        <ele>1184</ele>
        <time>2022-06-04T17:52:24Z</time>
      </trkpt>
      <trkpt lat="44.65532" lon="3.48619">
        <ele>1181</ele>
        <time>2022-06-04T17:52:36Z</time>
      </trkpt>
      <trkpt lat="44.65525" lon="3.48591">
        <ele>1182</ele>
        <time>2022-06-04T17:52:40Z</time>
      </trkpt>
      <trkpt lat="44.65497" lon="3.48535">
        <ele>1184</ele>
        <time>2022-06-04T17:52:49Z</time>
      </trkpt>
      <trkpt lat="44.6549" lon="3.48493">
        <ele>1181</ele>
        <time>2022-06-04T17:52:54Z</time>
      </trkpt>
      <trkpt lat="44.65484" lon="3.48438">
        <ele>1178</ele>
        <time>2022-06-04T17:53:01Z</time>
      </trkpt>
      <trkpt lat="44.6547" lon="3.48412">
        <ele>1176</ele>
        <time>2022-06-04T17:53:05Z</time>
      </trkpt>
      <trkpt lat="44.65454" lon="3.48399">
        <ele>1175</ele>
        <time>2022-06-04T17:53:09Z</time>
      </trkpt>
      <trkpt lat="44.65432" lon="3.48395">
        <ele>1174</ele>
        <time>2022-06-04T17:53:13Z</time>
      </trkpt>
      <trkpt lat="44.65408" lon="3.48405">
        <ele>1174</ele>
        <time>2022-06-04T17:53:17Z</time>
      </trkpt>
      <trkpt lat="44.65393" lon="3.48427">
        <ele>1176</ele>
        <time>2022-06-04T17:53:21Z</time>
      </trkpt>
      <trkpt lat="44.65383" lon="3.48447">
        <ele>1178</ele>
        <time>2022-06-04T17:53:24Z</time>
      </trkpt>
      <trkpt lat="44.65361" lon="3.4846">
        <ele>1178</ele>
        <time>2022-06-04T17:53:28Z</time>
      </trkpt>
      <trkpt lat="44.65346" lon="3.48462">
        <ele>1177</ele>
        <time>2022-06-04T17:53:31Z</time>
      </trkpt>
      <trkpt lat="44.65305" lon="3.48451">
        <ele>1174</ele>
        <time>2022-06-04T17:53:38Z</time>
      </trkpt>
      <trkpt lat="44.65279" lon="3.48455">
        <ele>1174</ele>
        <time>2022-06-04T17:53:43Z</time>
      </trkpt>
      <trkpt lat="44.65228" lon="3.48499">
        <ele>1176</ele>
        <time>2022-06-04T17:53:54Z</time>
      </trkpt>
      <trkpt lat="44.65205" lon="3.48511">
        <ele>1177</ele>
        <time>2022-06-04T17:53:58Z</time>
      </trkpt>
      <trkpt lat="44.65184" lon="3.48515">
        <ele>1176</ele>
        <time>2022-06-04T17:54:02Z</time>
      </trkpt>
      <trkpt lat="44.65152" lon="3.48509">
        <ele>1175</ele>
        <time>2022-06-04T17:54:08Z</time>
      </trkpt>
      <trkpt lat="44.65084" lon="3.48484">
        <ele>1175</ele>
        <time>2022-06-04T17:54:20Z</time>
      </trkpt>
      <trkpt lat="44.6505" lon="3.48484">
        <ele>1175</ele>
        <time>2022-06-04T17:54:26Z</time>
      </trkpt>
      <trkpt lat="44.64888" lon="3.48541">
        <ele>1175</ele>
        <time>2022-06-04T17:54:56Z</time>
      </trkpt>
      <trkpt lat="44.64865" lon="3.48547">
        <ele>1175</ele>
        <time>2022-06-04T17:55:00Z</time>
      </trkpt>
      <trkpt lat="44.64576" lon="3.48556">
        <ele>1171</ele>
        <time>2022-06-04T17:55:51Z</time>
      </trkpt>
      <trkpt lat="44.64536" lon="3.48549">
        <ele>1167</ele>
        <time>2022-06-04T17:55:59Z</time>
      </trkpt>
      <trkpt lat="44.6442" lon="3.48516">
        <ele>1157</ele>
        <time>2022-06-04T17:56:20Z</time>
      </trkpt>
      <trkpt lat="44.64399" lon="3.48498">
        <ele>1155</ele>
        <time>2022-06-04T17:56:24Z</time>
      </trkpt>
      <trkpt lat="44.64393" lon="3.48475">
        <ele>1153</ele>
        <time>2022-06-04T17:56:27Z</time>
      </trkpt>
      <trkpt lat="44.64396" lon="3.48448">
        <ele>1153</ele>
        <time>2022-06-04T17:56:31Z</time>
      </trkpt>
      <trkpt lat="44.64412" lon="3.48399">
        <ele>1154</ele>
        <time>2022-06-04T17:56:37Z</time>
      </trkpt>
      <trkpt lat="44.64419" lon="3.48356">
        <ele>1153</ele>
        <time>2022-06-04T17:56:43Z</time>
      </trkpt>
      <trkpt lat="44.64417" lon="3.4832">
        <ele>1152</ele>
        <time>2022-06-04T17:56:48Z</time>
      </trkpt>
      <trkpt lat="44.64401" lon="3.4825">
        <ele>1149</ele>
        <time>2022-06-04T17:56:57Z</time>
      </trkpt>
      <trkpt lat="44.64392" lon="3.48228">
        <ele>1149</ele>
        <time>2022-06-04T17:57:00Z</time>
      </trkpt>
      <trkpt lat="44.64388" lon="3.48222">
        <ele>1149</ele>
        <time>2022-06-04T17:57:01Z</time>
      </trkpt>
      <trkpt lat="44.6438" lon="3.48219">
        <ele>1148</ele>
        <time>2022-06-04T17:57:03Z</time>
      </trkpt>
      <trkpt lat="44.64346" lon="3.48222">
        <ele>1144</ele>
        <time>2022-06-04T17:57:09Z</time>
      </trkpt>
      <trkpt lat="44.64332" lon="3.48221">
        <ele>1143</ele>
        <time>2022-06-04T17:57:11Z</time>
      </trkpt>
      <trkpt lat="44.64318" lon="3.48208">
        <ele>1142</ele>
        <time>2022-06-04T17:57:14Z</time>
      </trkpt>
      <trkpt lat="44.64304" lon="3.48191">
        <ele>1141</ele>
        <time>2022-06-04T17:57:17Z</time>
      </trkpt>
      <trkpt lat="44.64274" lon="3.48131">
        <ele>1140</ele>
        <time>2022-06-04T17:57:27Z</time>
      </trkpt>
      <trkpt lat="44.64255" lon="3.48104">
        <ele>1139</ele>
        <time>2022-06-04T17:57:32Z</time>
      </trkpt>
      <trkpt lat="44.64236" lon="3.48096">
        <ele>1136</ele>
        <time>2022-06-04T17:57:35Z</time>
      </trkpt>
      <trkpt lat="44.64215" lon="3.48077">
        <ele>1133</ele>
        <time>2022-06-04T17:57:40Z</time>
      </trkpt>
      <trkpt lat="44.64204" lon="3.48054">
        <ele>1132</ele>
        <time>2022-06-04T17:57:43Z</time>
      </trkpt>
      <trkpt lat="44.64201" lon="3.47987">
        <ele>1134</ele>
        <time>2022-06-04T17:57:52Z</time>
      </trkpt>
      <trkpt lat="44.64192" lon="3.47971">
        <ele>1133</ele>
        <time>2022-06-04T17:57:54Z</time>
      </trkpt>
      <trkpt lat="44.64171" lon="3.47955">
        <ele>1130</ele>
        <time>2022-06-04T17:57:58Z</time>
      </trkpt>
      <trkpt lat="44.64154" lon="3.47937">
        <ele>1129</ele>
        <time>2022-06-04T17:58:02Z</time>
      </trkpt>
      <trkpt lat="44.6414" lon="3.47868">
        <ele>1131</ele>
        <time>2022-06-04T17:58:11Z</time>
      </trkpt>
      <trkpt lat="44.64129" lon="3.47852">
        <ele>1130</ele>
        <time>2022-06-04T17:58:14Z</time>
      </trkpt>
      <trkpt lat="44.64116" lon="3.47845">
        <ele>1128</ele>
        <time>2022-06-04T17:58:17Z</time>
      </trkpt>
      <trkpt lat="44.64078" lon="3.47845">
        <ele>1123</ele>
        <time>2022-06-04T17:58:23Z</time>
      </trkpt>
      <trkpt lat="44.64051" lon="3.47852">
        <ele>1121</ele>
        <time>2022-06-04T17:58:28Z</time>
      </trkpt>
      <trkpt lat="44.64038" lon="3.4787">
        <ele>1119</ele>
        <time>2022-06-04T17:58:31Z</time>
      </trkpt>
      <trkpt lat="44.64028" lon="3.4789">
        <ele>1117</ele>
        <time>2022-06-04T17:58:35Z</time>
      </trkpt>
      <trkpt lat="44.64017" lon="3.47907">
        <ele>1115</ele>
        <time>2022-06-04T17:58:37Z</time>
      </trkpt>
      <trkpt lat="44.64001" lon="3.4791">
        <ele>1113</ele>
        <time>2022-06-04T17:58:40Z</time>
      </trkpt>
      <trkpt lat="44.63988" lon="3.47899">
        <ele>1113</ele>
        <time>2022-06-04T17:58:43Z</time>
      </trkpt>
      <trkpt lat="44.63981" lon="3.4788">
        <ele>1114</ele>
        <time>2022-06-04T17:58:46Z</time>
      </trkpt>
      <trkpt lat="44.63972" lon="3.4785">
        <ele>1114</ele>
        <time>2022-06-04T17:58:50Z</time>
      </trkpt>
      <trkpt lat="44.6396" lon="3.4782">
        <ele>1114</ele>
        <time>2022-06-04T17:58:54Z</time>
      </trkpt>
      <trkpt lat="44.63919" lon="3.47753">
        <ele>1109</ele>
        <time>2022-06-04T17:59:05Z</time>
      </trkpt>
      <trkpt lat="44.63906" lon="3.47713">
        <ele>1111</ele>
        <time>2022-06-04T17:59:11Z</time>
      </trkpt>
      <trkpt lat="44.639" lon="3.477">
        <ele>1112</ele>
        <time>2022-06-04T17:59:13Z</time>
      </trkpt>
      <trkpt lat="44.63893" lon="3.47692">
        <ele>1111</ele>
        <time>2022-06-04T17:59:15Z</time>
      </trkpt>
      <trkpt lat="44.63882" lon="3.47689">
        <ele>1110</ele>
        <time>2022-06-04T17:59:17Z</time>
      </trkpt>
      <trkpt lat="44.63881" lon="3.47696">
        <ele>1110</ele>
        <time>2022-06-04T17:59:17Z</time>
      </trkpt>
      <trkpt lat="44.63878" lon="3.47702">
        <ele>1109</ele>
        <time>2022-06-04T17:59:18Z</time>
      </trkpt>
      <trkpt lat="44.63852" lon="3.47739">
        <ele>1107</ele>
        <time>2022-06-04T17:59:25Z</time>
      </trkpt>
      <trkpt lat="44.63836" lon="3.4775">
        <ele>1106</ele>
        <time>2022-06-04T17:59:28Z</time>
      </trkpt>
      <trkpt lat="44.63826" lon="3.47755">
        <ele>1107</ele>
        <time>2022-06-04T17:59:30Z</time>
      </trkpt>
      <trkpt lat="44.63811" lon="3.47756">
        <ele>1109</ele>
        <time>2022-06-04T17:59:33Z</time>
      </trkpt>
      <trkpt lat="44.63808" lon="3.4776">
        <ele>1110</ele>
        <time>2022-06-04T17:59:33Z</time>
      </trkpt>
      <trkpt lat="44.63801" lon="3.4776">
        <ele>1110</ele>
        <time>2022-06-04T17:59:35Z</time>
      </trkpt>
      <trkpt lat="44.63771" lon="3.47741">
        <ele>1111</ele>
        <time>2022-06-04T17:59:40Z</time>
      </trkpt>
      <trkpt lat="44.63753" lon="3.47725">
        <ele>1112</ele>
        <time>2022-06-04T17:59:44Z</time>
      </trkpt>
      <trkpt lat="44.63733" lon="3.47699">
        <ele>1114</ele>
        <time>2022-06-04T17:59:49Z</time>
      </trkpt>
      <trkpt lat="44.63721" lon="3.47677">
        <ele>1116</ele>
        <time>2022-06-04T17:59:53Z</time>
      </trkpt>
      <trkpt lat="44.63693" lon="3.47613">
        <ele>1118</ele>
        <time>2022-06-04T18:00:02Z</time>
      </trkpt>
      <trkpt lat="44.63683" lon="3.47596">
        <ele>1118</ele>
        <time>2022-06-04T18:00:05Z</time>
      </trkpt>
      <trkpt lat="44.63674" lon="3.47585">
        <ele>1119</ele>
        <time>2022-06-04T18:00:07Z</time>
      </trkpt>
      <trkpt lat="44.63655" lon="3.47577">
        <ele>1119</ele>
        <time>2022-06-04T18:00:11Z</time>
      </trkpt>
      <trkpt lat="44.63632" lon="3.47583">
        <ele>1121</ele>
        <time>2022-06-04T18:00:15Z</time>
      </trkpt>
      <trkpt lat="44.63511" lon="3.47658">
        <ele>1129</ele>
        <time>2022-06-04T18:00:38Z</time>
      </trkpt>
      <trkpt lat="44.63496" lon="3.47679">
        <ele>1131</ele>
        <time>2022-06-04T18:00:42Z</time>
      </trkpt>
      <trkpt lat="44.63484" lon="3.47711">
        <ele>1133</ele>
        <time>2022-06-04T18:00:47Z</time>
      </trkpt>
      <trkpt lat="44.63471" lon="3.47739">
        <ele>1134</ele>
        <time>2022-06-04T18:00:51Z</time>
      </trkpt>
      <trkpt lat="44.63459" lon="3.47757">
        <ele>1135</ele>
        <time>2022-06-04T18:00:54Z</time>
      </trkpt>
      <trkpt lat="44.63451" lon="3.47772">
        <ele>1136</ele>
        <time>2022-06-04T18:00:56Z</time>
      </trkpt>
      <trkpt lat="44.6344" lon="3.47804">
        <ele>1137</ele>
        <time>2022-06-04T18:01:01Z</time>
      </trkpt>
      <trkpt lat="44.63429" lon="3.47825">
        <ele>1138</ele>
        <time>2022-06-04T18:01:04Z</time>
      </trkpt>
      <trkpt lat="44.63415" lon="3.47842">
        <ele>1137</ele>
        <time>2022-06-04T18:01:07Z</time>
      </trkpt>
      <trkpt lat="44.63389" lon="3.47858">
        <ele>1138</ele>
        <time>2022-06-04T18:01:13Z</time>
      </trkpt>
      <trkpt lat="44.63386" lon="3.47864">
        <ele>1138</ele>
        <time>2022-06-04T18:01:13Z</time>
      </trkpt>
      <trkpt lat="44.63382" lon="3.47897">
        <ele>1140</ele>
        <time>2022-06-04T18:01:18Z</time>
      </trkpt>
      <trkpt lat="44.63378" lon="3.47905">
        <ele>1141</ele>
        <time>2022-06-04T18:01:19Z</time>
      </trkpt>
      <trkpt lat="44.63373" lon="3.4791">
        <ele>1141</ele>
        <time>2022-06-04T18:01:20Z</time>
      </trkpt>
      <trkpt lat="44.63343" lon="3.47923">
        <ele>1143</ele>
        <time>2022-06-04T18:01:26Z</time>
      </trkpt>
      <trkpt lat="44.63251" lon="3.47953">
        <ele>1145</ele>
        <time>2022-06-04T18:01:42Z</time>
      </trkpt>
      <trkpt lat="44.63236" lon="3.47959">
        <ele>1145</ele>
        <time>2022-06-04T18:01:45Z</time>
      </trkpt>
      <trkpt lat="44.63223" lon="3.47968">
        <ele>1146</ele>
        <time>2022-06-04T18:01:48Z</time>
      </trkpt>
      <trkpt lat="44.63208" lon="3.47989">
        <ele>1147</ele>
        <time>2022-06-04T18:01:52Z</time>
      </trkpt>
      <trkpt lat="44.63204" lon="3.48002">
        <ele>1148</ele>
        <time>2022-06-04T18:01:53Z</time>
      </trkpt>
      <trkpt lat="44.632" lon="3.4803">
        <ele>1149</ele>
        <time>2022-06-04T18:01:57Z</time>
      </trkpt>
      <trkpt lat="44.63201" lon="3.48113">
        <ele>1154</ele>
        <time>2022-06-04T18:02:07Z</time>
      </trkpt>
      <trkpt lat="44.63201" lon="3.48168">
        <ele>1157</ele>
        <time>2022-06-04T18:02:14Z</time>
      </trkpt>
      <trkpt lat="44.63185" lon="3.48247">
        <ele>1160</ele>
        <time>2022-06-04T18:02:25Z</time>
      </trkpt>
      <trkpt lat="44.63185" lon="3.4826">
        <ele>1160</ele>
        <time>2022-06-04T18:02:26Z</time>
      </trkpt>
      <trkpt lat="44.63187" lon="3.48273">
        <ele>1160</ele>
        <time>2022-06-04T18:02:28Z</time>
      </trkpt>
      <trkpt lat="44.63191" lon="3.48283">
        <ele>1161</ele>
        <time>2022-06-04T18:02:30Z</time>
      </trkpt>
      <trkpt lat="44.632" lon="3.48296">
        <ele>1162</ele>
        <time>2022-06-04T18:02:32Z</time>
      </trkpt>
      <trkpt lat="44.63227" lon="3.48326">
        <ele>1165</ele>
        <time>2022-06-04T18:02:38Z</time>
      </trkpt>
      <trkpt lat="44.6324" lon="3.48337">
        <ele>1167</ele>
        <time>2022-06-04T18:02:41Z</time>
      </trkpt>
      <trkpt lat="44.6329" lon="3.48358">
        <ele>1171</ele>
        <time>2022-06-04T18:02:50Z</time>
      </trkpt>
      <trkpt lat="44.63305" lon="3.48369">
        <ele>1172</ele>
        <time>2022-06-04T18:02:53Z</time>
      </trkpt>
      <trkpt lat="44.6333" lon="3.48397">
        <ele>1173</ele>
        <time>2022-06-04T18:02:59Z</time>
      </trkpt>
      <trkpt lat="44.63337" lon="3.4841">
        <ele>1173</ele>
        <time>2022-06-04T18:03:01Z</time>
      </trkpt>
      <trkpt lat="44.63345" lon="3.48437">
        <ele>1173</ele>
        <time>2022-06-04T18:03:04Z</time>
      </trkpt>
      <trkpt lat="44.63347" lon="3.4846">
        <ele>1173</ele>
        <time>2022-06-04T18:03:07Z</time>
      </trkpt>
      <trkpt lat="44.63346" lon="3.48469">
        <ele>1173</ele>
        <time>2022-06-04T18:03:09Z</time>
      </trkpt>
      <trkpt lat="44.63314" lon="3.48556">
        <ele>1174</ele>
        <time>2022-06-04T18:03:21Z</time>
      </trkpt>
      <trkpt lat="44.633" lon="3.4858">
        <ele>1175</ele>
        <time>2022-06-04T18:03:25Z</time>
      </trkpt>
      <trkpt lat="44.63269" lon="3.48617">
        <ele>1176</ele>
        <time>2022-06-04T18:03:32Z</time>
      </trkpt>
      <trkpt lat="44.63257" lon="3.48642">
        <ele>1177</ele>
        <time>2022-06-04T18:03:36Z</time>
      </trkpt>
      <trkpt lat="44.63254" lon="3.48657">
        <ele>1178</ele>
        <time>2022-06-04T18:03:38Z</time>
      </trkpt>
      <trkpt lat="44.63251" lon="3.48695">
        <ele>1180</ele>
        <time>2022-06-04T18:03:43Z</time>
      </trkpt>
      <trkpt lat="44.63251" lon="3.48747">
        <ele>1182</ele>
        <time>2022-06-04T18:03:49Z</time>
      </trkpt>
      <trkpt lat="44.63243" lon="3.48792">
        <ele>1183</ele>
        <time>2022-06-04T18:03:55Z</time>
      </trkpt>
      <trkpt lat="44.63217" lon="3.48871">
        <ele>1185</ele>
        <time>2022-06-04T18:04:06Z</time>
      </trkpt>
      <trkpt lat="44.63212" lon="3.48893">
        <ele>1186</ele>
        <time>2022-06-04T18:04:09Z</time>
      </trkpt>
      <trkpt lat="44.63212" lon="3.48914">
        <ele>1187</ele>
        <time>2022-06-04T18:04:12Z</time>
      </trkpt>
      <trkpt lat="44.63215" lon="3.48936">
        <ele>1188</ele>
        <time>2022-06-04T18:04:15Z</time>
      </trkpt>
      <trkpt lat="44.63219" lon="3.48959">
        <ele>1189</ele>
        <time>2022-06-04T18:04:18Z</time>
      </trkpt>
      <trkpt lat="44.63225" lon="3.48978">
        <ele>1190</ele>
        <time>2022-06-04T18:04:20Z</time>
      </trkpt>
      <trkpt lat="44.63262" lon="3.49069">
        <ele>1195</ele>
        <time>2022-06-04T18:04:34Z</time>
      </trkpt>
      <trkpt lat="44.63268" lon="3.49096">
        <ele>1197</ele>
        <time>2022-06-04T18:04:37Z</time>
      </trkpt>
      <trkpt lat="44.6327" lon="3.49112">
        <ele>1198</ele>
        <time>2022-06-04T18:04:39Z</time>
      </trkpt>
      <trkpt lat="44.6327" lon="3.49127">
        <ele>1199</ele>
        <time>2022-06-04T18:04:41Z</time>
      </trkpt>
      <trkpt lat="44.63266" lon="3.49146">
        <ele>1200</ele>
        <time>2022-06-04T18:04:44Z</time>
      </trkpt>
      <trkpt lat="44.63251" lon="3.49167">
        <ele>1200</ele>
        <time>2022-06-04T18:04:47Z</time>
      </trkpt>
      <trkpt lat="44.63238" lon="3.49176">
        <ele>1201</ele>
        <time>2022-06-04T18:04:50Z</time>
      </trkpt>
      <trkpt lat="44.63223" lon="3.4918">
        <ele>1201</ele>
        <time>2022-06-04T18:04:53Z</time>
      </trkpt>
      <trkpt lat="44.63163" lon="3.49212">
        <ele>1203</ele>
        <time>2022-06-04T18:05:04Z</time>
      </trkpt>
      <trkpt lat="44.6315" lon="3.49223">
        <ele>1203</ele>
        <time>2022-06-04T18:05:07Z</time>
      </trkpt>
      <trkpt lat="44.63129" lon="3.49249">
        <ele>1203</ele>
        <time>2022-06-04T18:05:12Z</time>
      </trkpt>
      <trkpt lat="44.63116" lon="3.49279">
        <ele>1204</ele>
        <time>2022-06-04T18:05:16Z</time>
      </trkpt>
      <trkpt lat="44.63112" lon="3.49296">
        <ele>1204</ele>
        <time>2022-06-04T18:05:18Z</time>
      </trkpt>
      <trkpt lat="44.63107" lon="3.49337">
        <ele>1205</ele>
        <time>2022-06-04T18:05:24Z</time>
      </trkpt>
      <trkpt lat="44.63106" lon="3.49429">
        <ele>1204</ele>
        <time>2022-06-04T18:05:35Z</time>
      </trkpt>
      <trkpt lat="44.63101" lon="3.49441">
        <ele>1203</ele>
        <time>2022-06-04T18:05:37Z</time>
      </trkpt>
      <trkpt lat="44.63108" lon="3.49488">
        <ele>1203</ele>
        <time>2022-06-04T18:05:43Z</time>
      </trkpt>
      <trkpt lat="44.63106" lon="3.49515">
        <ele>1203</ele>
        <time>2022-06-04T18:05:47Z</time>
      </trkpt>
      <trkpt lat="44.631" lon="3.49539">
        <ele>1203</ele>
        <time>2022-06-04T18:05:50Z</time>
      </trkpt>
      <trkpt lat="44.63092" lon="3.49561">
        <ele>1204</ele>
        <time>2022-06-04T18:05:53Z</time>
      </trkpt>
      <trkpt lat="44.63053" lon="3.49644">
        <ele>1209</ele>
        <time>2022-06-04T18:06:06Z</time>
      </trkpt>
      <trkpt lat="44.63034" lon="3.49713">
        <ele>1211</ele>
        <time>2022-06-04T18:06:15Z</time>
      </trkpt>
      <trkpt lat="44.63018" lon="3.49761">
        <ele>1212</ele>
        <time>2022-06-04T18:06:22Z</time>
      </trkpt>
      <trkpt lat="44.63" lon="3.49803">
        <ele>1213</ele>
        <time>2022-06-04T18:06:28Z</time>
      </trkpt>
      <trkpt lat="44.62977" lon="3.49833">
        <ele>1214</ele>
        <time>2022-06-04T18:06:33Z</time>
      </trkpt>
      <trkpt lat="44.62924" lon="3.49877">
        <ele>1213</ele>
        <time>2022-06-04T18:06:44Z</time>
      </trkpt>
      <trkpt lat="44.62857" lon="3.49942">
        <ele>1212</ele>
        <time>2022-06-04T18:06:59Z</time>
      </trkpt>
      <trkpt lat="44.62843" lon="3.49958">
        <ele>1212</ele>
        <time>2022-06-04T18:07:02Z</time>
      </trkpt>
      <trkpt lat="44.62802" lon="3.50029">
        <ele>1211</ele>
        <time>2022-06-04T18:07:14Z</time>
      </trkpt>
      <trkpt lat="44.62769" lon="3.5007">
        <ele>1210</ele>
        <time>2022-06-04T18:07:22Z</time>
      </trkpt>
      <trkpt lat="44.62723" lon="3.50138">
        <ele>1207</ele>
        <time>2022-06-04T18:07:33Z</time>
      </trkpt>
      <trkpt lat="44.62711" lon="3.5016">
        <ele>1206</ele>
        <time>2022-06-04T18:07:37Z</time>
      </trkpt>
      <trkpt lat="44.62688" lon="3.50211">
        <ele>1206</ele>
        <time>2022-06-04T18:07:45Z</time>
      </trkpt>
      <trkpt lat="44.62675" lon="3.50237">
        <ele>1207</ele>
        <time>2022-06-04T18:07:49Z</time>
      </trkpt>
      <trkpt lat="44.62655" lon="3.50264">
        <ele>1207</ele>
        <time>2022-06-04T18:07:54Z</time>
      </trkpt>
      <trkpt lat="44.62627" lon="3.50297">
        <ele>1208</ele>
        <time>2022-06-04T18:08:00Z</time>
      </trkpt>
      <trkpt lat="44.62585" lon="3.50337">
        <ele>1209</ele>
        <time>2022-06-04T18:08:09Z</time>
      </trkpt>
      <trkpt lat="44.62562" lon="3.50366">
        <ele>1210</ele>
        <time>2022-06-04T18:08:15Z</time>
      </trkpt>
      <trkpt lat="44.62513" lon="3.50437">
        <ele>1211</ele>
        <time>2022-06-04T18:08:27Z</time>
      </trkpt>
      <trkpt lat="44.62441" lon="3.50565">
        <ele>1212</ele>
        <time>2022-06-04T18:08:48Z</time>
      </trkpt>
      <trkpt lat="44.62374" lon="3.50674">
        <ele>1215</ele>
        <time>2022-06-04T18:09:06Z</time>
      </trkpt>
      <trkpt lat="44.62363" lon="3.50689">
        <ele>1216</ele>
        <time>2022-06-04T18:09:09Z</time>
      </trkpt>
      <trkpt lat="44.62317" lon="3.50736">
        <ele>1218</ele>
        <time>2022-06-04T18:09:19Z</time>
      </trkpt>
      <trkpt lat="44.62267" lon="3.50798">
        <ele>1220</ele>
        <time>2022-06-04T18:09:31Z</time>
      </trkpt>
      <trkpt lat="44.62188" lon="3.5089">
        <ele>1218</ele>
        <time>2022-06-04T18:09:49Z</time>
      </trkpt>
      <trkpt lat="44.6217" lon="3.50906">
        <ele>1218</ele>
        <time>2022-06-04T18:09:53Z</time>
      </trkpt>
      <trkpt lat="44.62136" lon="3.50929">
        <ele>1218</ele>
        <time>2022-06-04T18:09:59Z</time>
      </trkpt>
      <trkpt lat="44.62111" lon="3.5095">
        <ele>1219</ele>
        <time>2022-06-04T18:10:05Z</time>
      </trkpt>
      <trkpt lat="44.62082" lon="3.50986">
        <ele>1222</ele>
        <time>2022-06-04T18:10:12Z</time>
      </trkpt>
      <trkpt lat="44.62062" lon="3.51006">
        <ele>1223</ele>
        <time>2022-06-04T18:10:16Z</time>
      </trkpt>
      <trkpt lat="44.62029" lon="3.5103">
        <ele>1225</ele>
        <time>2022-06-04T18:10:23Z</time>
      </trkpt>
      <trkpt lat="44.61952" lon="3.51069">
        <ele>1229</ele>
        <time>2022-06-04T18:10:37Z</time>
      </trkpt>
      <trkpt lat="44.61931" lon="3.51085">
        <ele>1229</ele>
        <time>2022-06-04T18:10:41Z</time>
      </trkpt>
      <trkpt lat="44.61908" lon="3.51108">
        <ele>1230</ele>
        <time>2022-06-04T18:10:46Z</time>
      </trkpt>
      <trkpt lat="44.61887" lon="3.5112">
        <ele>1230</ele>
        <time>2022-06-04T18:10:50Z</time>
      </trkpt>
      <trkpt lat="44.61853" lon="3.51134">
        <ele>1231</ele>
        <time>2022-06-04T18:10:57Z</time>
      </trkpt>
      <trkpt lat="44.61784" lon="3.51169">
        <ele>1234</ele>
        <time>2022-06-04T18:11:10Z</time>
      </trkpt>
      <trkpt lat="44.61732" lon="3.51182">
        <ele>1236</ele>
        <time>2022-06-04T18:11:19Z</time>
      </trkpt>
      <trkpt lat="44.6169" lon="3.51201">
        <ele>1240</ele>
        <time>2022-06-04T18:11:27Z</time>
      </trkpt>
      <trkpt lat="44.61664" lon="3.51219">
        <ele>1242</ele>
        <time>2022-06-04T18:11:32Z</time>
      </trkpt>
      <trkpt lat="44.61654" lon="3.51233">
        <ele>1243</ele>
        <time>2022-06-04T18:11:35Z</time>
      </trkpt>
      <trkpt lat="44.61647" lon="3.51255">
        <ele>1244</ele>
        <time>2022-06-04T18:11:38Z</time>
      </trkpt>
      <trkpt lat="44.61637" lon="3.51315">
        <ele>1245</ele>
        <time>2022-06-04T18:11:46Z</time>
      </trkpt>
      <trkpt lat="44.6163" lon="3.51341">
        <ele>1245</ele>
        <time>2022-06-04T18:11:49Z</time>
      </trkpt>
      <trkpt lat="44.61597" lon="3.51411">
        <ele>1249</ele>
        <time>2022-06-04T18:12:00Z</time>
      </trkpt>
      <trkpt lat="44.61584" lon="3.51449">
        <ele>1252</ele>
        <time>2022-06-04T18:12:05Z</time>
      </trkpt>
      <trkpt lat="44.61573" lon="3.5149">
        <ele>1255</ele>
        <time>2022-06-04T18:12:11Z</time>
      </trkpt>
      <trkpt lat="44.61565" lon="3.51527">
        <ele>1257</ele>
        <time>2022-06-04T18:12:15Z</time>
      </trkpt>
      <trkpt lat="44.61544" lon="3.5158">
        <ele>1259</ele>
        <time>2022-06-04T18:12:23Z</time>
      </trkpt>
      <trkpt lat="44.61529" lon="3.51632">
        <ele>1262</ele>
        <time>2022-06-04T18:12:30Z</time>
      </trkpt>
      <trkpt lat="44.61497" lon="3.51718">
        <ele>1266</ele>
        <time>2022-06-04T18:12:43Z</time>
      </trkpt>
      <trkpt lat="44.6148" lon="3.51749">
        <ele>1268</ele>
        <time>2022-06-04T18:12:47Z</time>
      </trkpt>
      <trkpt lat="44.61431" lon="3.51815">
        <ele>1269</ele>
        <time>2022-06-04T18:13:00Z</time>
      </trkpt>
      <trkpt lat="44.61424" lon="3.51827">
        <ele>1270</ele>
        <time>2022-06-04T18:13:02Z</time>
      </trkpt>
      <trkpt lat="44.61412" lon="3.5186">
        <ele>1269</ele>
        <time>2022-06-04T18:13:06Z</time>
      </trkpt>
      <trkpt lat="44.61393" lon="3.51947">
        <ele>1269</ele>
        <time>2022-06-04T18:13:18Z</time>
      </trkpt>
      <trkpt lat="44.61388" lon="3.51979">
        <ele>1269</ele>
        <time>2022-06-04T18:13:22Z</time>
      </trkpt>
      <trkpt lat="44.61382" lon="3.52058">
        <ele>1268</ele>
        <time>2022-06-04T18:13:32Z</time>
      </trkpt>
      <trkpt lat="44.61382" lon="3.52104">
        <ele>1269</ele>
        <time>2022-06-04T18:13:38Z</time>
      </trkpt>
      <trkpt lat="44.61379" lon="3.5213">
        <ele>1269</ele>
        <time>2022-06-04T18:13:41Z</time>
      </trkpt>
      <trkpt lat="44.61374" lon="3.52149">
        <ele>1270</ele>
        <time>2022-06-04T18:13:44Z</time>
      </trkpt>
      <trkpt lat="44.61346" lon="3.5221">
        <ele>1272</ele>
        <time>2022-06-04T18:13:53Z</time>
      </trkpt>
      <trkpt lat="44.6133" lon="3.52238">
        <ele>1272</ele>
        <time>2022-06-04T18:13:57Z</time>
      </trkpt>
      <trkpt lat="44.61311" lon="3.5226">
        <ele>1272</ele>
        <time>2022-06-04T18:14:02Z</time>
      </trkpt>
      <trkpt lat="44.6128" lon="3.5229">
        <ele>1272</ele>
        <time>2022-06-04T18:14:09Z</time>
      </trkpt>
      <trkpt lat="44.61255" lon="3.52325">
        <ele>1271</ele>
        <time>2022-06-04T18:14:15Z</time>
      </trkpt>
      <trkpt lat="44.61243" lon="3.52347">
        <ele>1271</ele>
        <time>2022-06-04T18:14:18Z</time>
      </trkpt>
      <trkpt lat="44.61238" lon="3.52366">
        <ele>1271</ele>
        <time>2022-06-04T18:14:21Z</time>
      </trkpt>
      <trkpt lat="44.61238" lon="3.52387">
        <ele>1270</ele>
        <time>2022-06-04T18:14:24Z</time>
      </trkpt>
      <trkpt lat="44.6124" lon="3.524">
        <ele>1269</ele>
        <time>2022-06-04T18:14:25Z</time>
      </trkpt>
      <trkpt lat="44.61249" lon="3.52421">
        <ele>1268</ele>
        <time>2022-06-04T18:14:28Z</time>
      </trkpt>
      <trkpt lat="44.61267" lon="3.52455">
        <ele>1270</ele>
        <time>2022-06-04T18:14:34Z</time>
      </trkpt>
      <trkpt lat="44.61289" lon="3.52519">
        <ele>1273</ele>
        <time>2022-06-04T18:14:43Z</time>
      </trkpt>
      <trkpt lat="44.61311" lon="3.52575">
        <ele>1278</ele>
        <time>2022-06-04T18:14:51Z</time>
      </trkpt>
      <trkpt lat="44.61322" lon="3.52591">
        <ele>1279</ele>
        <time>2022-06-04T18:14:54Z</time>
      </trkpt>
      <trkpt lat="44.6136" lon="3.52631">
        <ele>1281</ele>
        <time>2022-06-04T18:15:02Z</time>
      </trkpt>
      <trkpt lat="44.61372" lon="3.52656">
        <ele>1282</ele>
        <time>2022-06-04T18:15:06Z</time>
      </trkpt>
      <trkpt lat="44.61385" lon="3.52694">
        <ele>1284</ele>
        <time>2022-06-04T18:15:11Z</time>
      </trkpt>
      <trkpt lat="44.61392" lon="3.5273">
        <ele>1286</ele>
        <time>2022-06-04T18:15:16Z</time>
      </trkpt>
      <trkpt lat="44.61398" lon="3.52803">
        <ele>1288</ele>
        <time>2022-06-04T18:15:25Z</time>
      </trkpt>
      <trkpt lat="44.61405" lon="3.52862">
        <ele>1287</ele>
        <time>2022-06-04T18:15:33Z</time>
      </trkpt>
      <trkpt lat="44.61406" lon="3.5289">
        <ele>1286</ele>
        <time>2022-06-04T18:15:36Z</time>
      </trkpt>
      <trkpt lat="44.61402" lon="3.52924">
        <ele>1286</ele>
        <time>2022-06-04T18:15:41Z</time>
      </trkpt>
      <trkpt lat="44.61384" lon="3.52997">
        <ele>1285</ele>
        <time>2022-06-04T18:15:51Z</time>
      </trkpt>
      <trkpt lat="44.61378" lon="3.53031">
        <ele>1286</ele>
        <time>2022-06-04T18:15:55Z</time>
      </trkpt>
      <trkpt lat="44.61374" lon="3.53074">
        <ele>1287</ele>
        <time>2022-06-04T18:16:00Z</time>
      </trkpt>
      <trkpt lat="44.61373" lon="3.53213">
        <ele>1293</ele>
        <time>2022-06-04T18:16:18Z</time>
      </trkpt>
      <trkpt lat="44.61375" lon="3.53241">
        <ele>1295</ele>
        <time>2022-06-04T18:16:22Z</time>
      </trkpt>
      <trkpt lat="44.61383" lon="3.53266">
        <ele>1296</ele>
        <time>2022-06-04T18:16:25Z</time>
      </trkpt>
      <trkpt lat="44.61408" lon="3.53308">
        <ele>1299</ele>
        <time>2022-06-04T18:16:32Z</time>
      </trkpt>
      <trkpt lat="44.61435" lon="3.53376">
        <ele>1301</ele>
        <time>2022-06-04T18:16:42Z</time>
      </trkpt>
      <trkpt lat="44.61462" lon="3.53429">
        <ele>1302</ele>
        <time>2022-06-04T18:16:50Z</time>
      </trkpt>
      <trkpt lat="44.61502" lon="3.53527">
        <ele>1308</ele>
        <time>2022-06-04T18:17:04Z</time>
      </trkpt>
      <trkpt lat="44.61522" lon="3.53595">
        <ele>1310</ele>
        <time>2022-06-04T18:17:14Z</time>
      </trkpt>
      <trkpt lat="44.61542" lon="3.53641">
        <ele>1311</ele>
        <time>2022-06-04T18:17:21Z</time>
      </trkpt>
      <trkpt lat="44.61583" lon="3.53769">
        <ele>1311</ele>
        <time>2022-06-04T18:17:38Z</time>
      </trkpt>
      <trkpt lat="44.61606" lon="3.53827">
        <ele>1310</ele>
        <time>2022-06-04T18:17:47Z</time>
      </trkpt>
      <trkpt lat="44.61619" lon="3.53862">
        <ele>1309</ele>
        <time>2022-06-04T18:17:52Z</time>
      </trkpt>
      <trkpt lat="44.61654" lon="3.53999">
        <ele>1308</ele>
        <time>2022-06-04T18:18:10Z</time>
      </trkpt>
      <trkpt lat="44.6167" lon="3.54054">
        <ele>1308</ele>
        <time>2022-06-04T18:18:18Z</time>
      </trkpt>
      <trkpt lat="44.61699" lon="3.54108">
        <ele>1310</ele>
        <time>2022-06-04T18:18:26Z</time>
      </trkpt>
      <trkpt lat="44.61727" lon="3.54153">
        <ele>1314</ele>
        <time>2022-06-04T18:18:34Z</time>
      </trkpt>
      <trkpt lat="44.61749" lon="3.54184">
        <ele>1316</ele>
        <time>2022-06-04T18:18:39Z</time>
      </trkpt>
      <trkpt lat="44.61765" lon="3.54212">
        <ele>1320</ele>
        <time>2022-06-04T18:18:44Z</time>
      </trkpt>
      <trkpt lat="44.61773" lon="3.5423">
        <ele>1322</ele>
        <time>2022-06-04T18:18:47Z</time>
      </trkpt>
      <trkpt lat="44.6178" lon="3.54272">
        <ele>1326</ele>
        <time>2022-06-04T18:18:52Z</time>
      </trkpt>
      <trkpt lat="44.6178" lon="3.54296">
        <ele>1328</ele>
        <time>2022-06-04T18:18:55Z</time>
      </trkpt>
      <trkpt lat="44.61776" lon="3.54318">
        <ele>1330</ele>
        <time>2022-06-04T18:18:58Z</time>
      </trkpt>
      <trkpt lat="44.61768" lon="3.54334">
        <ele>1331</ele>
        <time>2022-06-04T18:19:01Z</time>
      </trkpt>
      <trkpt lat="44.61758" lon="3.54346">
        <ele>1332</ele>
        <time>2022-06-04T18:19:03Z</time>
      </trkpt>
      <trkpt lat="44.61737" lon="3.54362">
        <ele>1334</ele>
        <time>2022-06-04T18:19:07Z</time>
      </trkpt>
      <trkpt lat="44.61676" lon="3.54374">
        <ele>1337</ele>
        <time>2022-06-04T18:19:18Z</time>
      </trkpt>
      <trkpt lat="44.61661" lon="3.5438">
        <ele>1337</ele>
        <time>2022-06-04T18:19:21Z</time>
      </trkpt>
      <trkpt lat="44.61648" lon="3.54392">
        <ele>1338</ele>
        <time>2022-06-04T18:19:24Z</time>
      </trkpt>
      <trkpt lat="44.61639" lon="3.54406">
        <ele>1339</ele>
        <time>2022-06-04T18:19:26Z</time>
      </trkpt>
      <trkpt lat="44.6163" lon="3.5443">
        <ele>1340</ele>
        <time>2022-06-04T18:19:29Z</time>
      </trkpt>
      <trkpt lat="44.61616" lon="3.54506">
        <ele>1344</ele>
        <time>2022-06-04T18:19:39Z</time>
      </trkpt>
      <trkpt lat="44.61606" lon="3.54533">
        <ele>1346</ele>
        <time>2022-06-04T18:19:43Z</time>
      </trkpt>
      <trkpt lat="44.61575" lon="3.54598">
        <ele>1350</ele>
        <time>2022-06-04T18:19:53Z</time>
      </trkpt>
      <trkpt lat="44.61557" lon="3.54632">
        <ele>1349</ele>
        <time>2022-06-04T18:19:59Z</time>
      </trkpt>
      <trkpt lat="44.61548" lon="3.54658">
        <ele>1349</ele>
        <time>2022-06-04T18:20:02Z</time>
      </trkpt>
      <trkpt lat="44.61538" lon="3.547">
        <ele>1350</ele>
        <time>2022-06-04T18:20:08Z</time>
      </trkpt>
      <trkpt lat="44.61531" lon="3.54739">
        <ele>1352</ele>
        <time>2022-06-04T18:20:13Z</time>
      </trkpt>
      <trkpt lat="44.6151" lon="3.54832">
        <ele>1356</ele>
        <time>2022-06-04T18:20:25Z</time>
      </trkpt>
      <trkpt lat="44.61501" lon="3.54883">
        <ele>1358</ele>
        <time>2022-06-04T18:20:32Z</time>
      </trkpt>
      <trkpt lat="44.61496" lon="3.54939">
        <ele>1361</ele>
        <time>2022-06-04T18:20:39Z</time>
      </trkpt>
      <trkpt lat="44.61494" lon="3.54991">
        <ele>1363</ele>
        <time>2022-06-04T18:20:46Z</time>
      </trkpt>
      <trkpt lat="44.61479" lon="3.55121">
        <ele>1366</ele>
        <time>2022-06-04T18:21:02Z</time>
      </trkpt>
      <trkpt lat="44.61473" lon="3.55159">
        <ele>1367</ele>
        <time>2022-06-04T18:21:07Z</time>
      </trkpt>
      <trkpt lat="44.61457" lon="3.55215">
        <ele>1367</ele>
        <time>2022-06-04T18:21:15Z</time>
      </trkpt>
      <trkpt lat="44.61455" lon="3.55249">
        <ele>1367</ele>
        <time>2022-06-04T18:21:19Z</time>
      </trkpt>
      <trkpt lat="44.61459" lon="3.55282">
        <ele>1368</ele>
        <time>2022-06-04T18:21:23Z</time>
      </trkpt>
      <trkpt lat="44.61472" lon="3.55335">
        <ele>1371</ele>
        <time>2022-06-04T18:21:31Z</time>
      </trkpt>
      <trkpt lat="44.61478" lon="3.55369">
        <ele>1372</ele>
        <time>2022-06-04T18:21:35Z</time>
      </trkpt>
      <trkpt lat="44.61481" lon="3.55409">
        <ele>1374</ele>
        <time>2022-06-04T18:21:40Z</time>
      </trkpt>
      <trkpt lat="44.61482" lon="3.5544">
        <ele>1374</ele>
        <time>2022-06-04T18:21:44Z</time>
      </trkpt>
      <trkpt lat="44.61478" lon="3.5546">
        <ele>1374</ele>
        <time>2022-06-04T18:21:47Z</time>
      </trkpt>
      <trkpt lat="44.61472" lon="3.55474">
        <ele>1374</ele>
        <time>2022-06-04T18:21:49Z</time>
      </trkpt>
      <trkpt lat="44.61459" lon="3.55489">
        <ele>1374</ele>
        <time>2022-06-04T18:21:52Z</time>
      </trkpt>
      <trkpt lat="44.61406" lon="3.5553">
        <ele>1375</ele>
        <time>2022-06-04T18:22:02Z</time>
      </trkpt>
      <trkpt lat="44.61383" lon="3.55544">
        <ele>1376</ele>
        <time>2022-06-04T18:22:07Z</time>
      </trkpt>
      <trkpt lat="44.61203" lon="3.55633">
        <ele>1385</ele>
        <time>2022-06-04T18:22:41Z</time>
      </trkpt>
      <trkpt lat="44.61189" lon="3.55645">
        <ele>1386</ele>
        <time>2022-06-04T18:22:44Z</time>
      </trkpt>
      <trkpt lat="44.61174" lon="3.55665">
        <ele>1387</ele>
        <time>2022-06-04T18:22:47Z</time>
      </trkpt>
      <trkpt lat="44.61157" lon="3.55702">
        <ele>1389</ele>
        <time>2022-06-04T18:22:53Z</time>
      </trkpt>
      <trkpt lat="44.61146" lon="3.55746">
        <ele>1391</ele>
        <time>2022-06-04T18:22:59Z</time>
      </trkpt>
      <trkpt lat="44.61143" lon="3.55777">
        <ele>1392</ele>
        <time>2022-06-04T18:23:03Z</time>
      </trkpt>
      <trkpt lat="44.61142" lon="3.55815">
        <ele>1394</ele>
        <time>2022-06-04T18:23:08Z</time>
      </trkpt>
      <trkpt lat="44.61142" lon="3.55854">
        <ele>1397</ele>
        <time>2022-06-04T18:23:13Z</time>
      </trkpt>
      <trkpt lat="44.61146" lon="3.55879">
        <ele>1398</ele>
        <time>2022-06-04T18:23:16Z</time>
      </trkpt>
      <trkpt lat="44.61152" lon="3.55898">
        <ele>1398</ele>
        <time>2022-06-04T18:23:19Z</time>
      </trkpt>
      <trkpt lat="44.61165" lon="3.55927">
        <ele>1397</ele>
        <time>2022-06-04T18:23:23Z</time>
      </trkpt>
      <trkpt lat="44.61183" lon="3.55958">
        <ele>1397</ele>
        <time>2022-06-04T18:23:28Z</time>
      </trkpt>
      <trkpt lat="44.61189" lon="3.55976">
        <ele>1398</ele>
        <time>2022-06-04T18:23:30Z</time>
      </trkpt>
      <trkpt lat="44.61191" lon="3.55997">
        <ele>1399</ele>
        <time>2022-06-04T18:23:33Z</time>
      </trkpt>
      <trkpt lat="44.61186" lon="3.56029">
        <ele>1400</ele>
        <time>2022-06-04T18:23:37Z</time>
      </trkpt>
      <trkpt lat="44.6117" lon="3.56096">
        <ele>1402</ele>
        <time>2022-06-04T18:23:46Z</time>
      </trkpt>
      <trkpt lat="44.61164" lon="3.56136">
        <ele>1404</ele>
        <time>2022-06-04T18:23:51Z</time>
      </trkpt>
      <trkpt lat="44.61163" lon="3.56164">
        <ele>1404</ele>
        <time>2022-06-04T18:23:55Z</time>
      </trkpt>
      <trkpt lat="44.61167" lon="3.56197">
        <ele>1405</ele>
        <time>2022-06-04T18:23:59Z</time>
      </trkpt>
      <trkpt lat="44.61185" lon="3.56241">
        <ele>1404</ele>
        <time>2022-06-04T18:24:06Z</time>
      </trkpt>
      <trkpt lat="44.61193" lon="3.56267">
        <ele>1405</ele>
        <time>2022-06-04T18:24:09Z</time>
      </trkpt>
      <trkpt lat="44.61195" lon="3.56297">
        <ele>1405</ele>
        <time>2022-06-04T18:24:13Z</time>
      </trkpt>
      <trkpt lat="44.6118" lon="3.56378">
        <ele>1407</ele>
        <time>2022-06-04T18:24:24Z</time>
      </trkpt>
      <trkpt lat="44.61178" lon="3.56415">
        <ele>1408</ele>
        <time>2022-06-04T18:24:28Z</time>
      </trkpt>
      <trkpt lat="44.61184" lon="3.56514">
        <ele>1408</ele>
        <time>2022-06-04T18:24:41Z</time>
      </trkpt>
      <trkpt lat="44.61182" lon="3.56554">
        <ele>1409</ele>
        <time>2022-06-04T18:24:46Z</time>
      </trkpt>
      <trkpt lat="44.6116" lon="3.56701">
        <ele>1409</ele>
        <time>2022-06-04T18:25:05Z</time>
      </trkpt>
      <trkpt lat="44.61155" lon="3.56747">
        <ele>1409</ele>
        <time>2022-06-04T18:25:11Z</time>
      </trkpt>
      <trkpt lat="44.61153" lon="3.56832">
        <ele>1408</ele>
        <time>2022-06-04T18:25:22Z</time>
      </trkpt>
      <trkpt lat="44.61159" lon="3.57015">
        <ele>1409</ele>
        <time>2022-06-04T18:25:45Z</time>
      </trkpt>
      <trkpt lat="44.61157" lon="3.57087">
        <ele>1408</ele>
        <time>2022-06-04T18:25:54Z</time>
      </trkpt>
      <trkpt lat="44.6115" lon="3.57157">
        <ele>1407</ele>
        <time>2022-06-04T18:26:03Z</time>
      </trkpt>
      <trkpt lat="44.6113" lon="3.57274">
        <ele>1405</ele>
        <time>2022-06-04T18:26:18Z</time>
      </trkpt>
      <trkpt lat="44.61122" lon="3.57307">
        <ele>1405</ele>
        <time>2022-06-04T18:26:23Z</time>
      </trkpt>
      <trkpt lat="44.61109" lon="3.57339">
        <ele>1404</ele>
        <time>2022-06-04T18:26:27Z</time>
      </trkpt>
      <trkpt lat="44.61104" lon="3.57371">
        <ele>1402</ele>
        <time>2022-06-04T18:26:31Z</time>
      </trkpt>
      <trkpt lat="44.611" lon="3.57455">
        <ele>1398</ele>
        <time>2022-06-04T18:26:42Z</time>
      </trkpt>
      <trkpt lat="44.61097" lon="3.5749">
        <ele>1397</ele>
        <time>2022-06-04T18:26:47Z</time>
      </trkpt>
      <trkpt lat="44.61088" lon="3.57531">
        <ele>1397</ele>
        <time>2022-06-04T18:26:52Z</time>
      </trkpt>
      <trkpt lat="44.61078" lon="3.57571">
        <ele>1396</ele>
        <time>2022-06-04T18:26:57Z</time>
      </trkpt>
      <trkpt lat="44.61061" lon="3.57625">
        <ele>1395</ele>
        <time>2022-06-04T18:27:05Z</time>
      </trkpt>
      <trkpt lat="44.61044" lon="3.57667">
        <ele>1394</ele>
        <time>2022-06-04T18:27:11Z</time>
      </trkpt>
      <trkpt lat="44.61021" lon="3.57715">
        <ele>1393</ele>
        <time>2022-06-04T18:27:18Z</time>
      </trkpt>
      <trkpt lat="44.60996" lon="3.57758">
        <ele>1392</ele>
        <time>2022-06-04T18:27:25Z</time>
      </trkpt>
      <trkpt lat="44.60971" lon="3.57793">
        <ele>1390</ele>
        <time>2022-06-04T18:27:32Z</time>
      </trkpt>
      <trkpt lat="44.60691" lon="3.58073">
        <ele>1382</ele>
        <time>2022-06-04T18:28:33Z</time>
      </trkpt>
      <trkpt lat="44.60686" lon="3.58078">
        <ele>1382</ele>
        <time>2022-06-04T18:28:34Z</time>
      </trkpt>
      <trkpt lat="44.60667" lon="3.581">
        <ele>1382</ele>
        <time>2022-06-04T18:28:38Z</time>
      </trkpt>
      <trkpt lat="44.60658" lon="3.58124">
        <ele>1383</ele>
        <time>2022-06-04T18:28:42Z</time>
      </trkpt>
      <trkpt lat="44.60652" lon="3.58166">
        <ele>1384</ele>
        <time>2022-06-04T18:28:47Z</time>
      </trkpt>
      <trkpt lat="44.60652" lon="3.58197">
        <ele>1385</ele>
        <time>2022-06-04T18:28:51Z</time>
      </trkpt>
      <trkpt lat="44.60656" lon="3.5823">
        <ele>1385</ele>
        <time>2022-06-04T18:28:55Z</time>
      </trkpt>
      <trkpt lat="44.60683" lon="3.58314">
        <ele>1385</ele>
        <time>2022-06-04T18:29:07Z</time>
      </trkpt>
      <trkpt lat="44.60693" lon="3.58354">
        <ele>1385</ele>
        <time>2022-06-04T18:29:12Z</time>
      </trkpt>
      <trkpt lat="44.607" lon="3.58397">
        <ele>1386</ele>
        <time>2022-06-04T18:29:18Z</time>
      </trkpt>
      <trkpt lat="44.60703" lon="3.58432">
        <ele>1386</ele>
        <time>2022-06-04T18:29:22Z</time>
      </trkpt>
      <trkpt lat="44.60702" lon="3.58462">
        <ele>1386</ele>
        <time>2022-06-04T18:29:26Z</time>
      </trkpt>
      <trkpt lat="44.60696" lon="3.58493">
        <ele>1387</ele>
        <time>2022-06-04T18:29:30Z</time>
      </trkpt>
      <trkpt lat="44.60686" lon="3.58517">
        <ele>1388</ele>
        <time>2022-06-04T18:29:34Z</time>
      </trkpt>
      <trkpt lat="44.60669" lon="3.58543">
        <ele>1389</ele>
        <time>2022-06-04T18:29:38Z</time>
      </trkpt>
      <trkpt lat="44.60645" lon="3.58568">
        <ele>1390</ele>
        <time>2022-06-04T18:29:44Z</time>
      </trkpt>
      <trkpt lat="44.60601" lon="3.58605">
        <ele>1393</ele>
        <time>2022-06-04T18:29:53Z</time>
      </trkpt>
      <trkpt lat="44.60594" lon="3.58622">
        <ele>1394</ele>
        <time>2022-06-04T18:29:55Z</time>
      </trkpt>
      <trkpt lat="44.60591" lon="3.58638">
        <ele>1393</ele>
        <time>2022-06-04T18:29:57Z</time>
      </trkpt>
      <trkpt lat="44.60596" lon="3.58658">
        <ele>1392</ele>
        <time>2022-06-04T18:30:00Z</time>
      </trkpt>
      <trkpt lat="44.60607" lon="3.58681">
        <ele>1392</ele>
        <time>2022-06-04T18:30:04Z</time>
      </trkpt>
      <trkpt lat="44.60627" lon="3.58713">
        <ele>1391</ele>
        <time>2022-06-04T18:30:09Z</time>
      </trkpt>
      <trkpt lat="44.60677" lon="3.58787">
        <ele>1393</ele>
        <time>2022-06-04T18:30:22Z</time>
      </trkpt>
      <trkpt lat="44.60688" lon="3.58809">
        <ele>1394</ele>
        <time>2022-06-04T18:30:25Z</time>
      </trkpt>
      <trkpt lat="44.60696" lon="3.58837">
        <ele>1394</ele>
        <time>2022-06-04T18:30:29Z</time>
      </trkpt>
      <trkpt lat="44.607" lon="3.58862">
        <ele>1394</ele>
        <time>2022-06-04T18:30:32Z</time>
      </trkpt>
      <trkpt lat="44.6071" lon="3.58975">
        <ele>1396</ele>
        <time>2022-06-04T18:30:47Z</time>
      </trkpt>
      <trkpt lat="44.60727" lon="3.59058">
        <ele>1396</ele>
        <time>2022-06-04T18:30:58Z</time>
      </trkpt>
      <trkpt lat="44.60733" lon="3.59101">
        <ele>1396</ele>
        <time>2022-06-04T18:31:03Z</time>
      </trkpt>
      <trkpt lat="44.60732" lon="3.5913">
        <ele>1396</ele>
        <time>2022-06-04T18:31:07Z</time>
      </trkpt>
      <trkpt lat="44.60728" lon="3.59153">
        <ele>1396</ele>
        <time>2022-06-04T18:31:10Z</time>
      </trkpt>
      <trkpt lat="44.60704" lon="3.59245">
        <ele>1395</ele>
        <time>2022-06-04T18:31:22Z</time>
      </trkpt>
      <trkpt lat="44.60653" lon="3.59415">
        <ele>1391</ele>
        <time>2022-06-04T18:31:46Z</time>
      </trkpt>
      <trkpt lat="44.60639" lon="3.59453">
        <ele>1389</ele>
        <time>2022-06-04T18:31:51Z</time>
      </trkpt>
      <trkpt lat="44.60628" lon="3.59472">
        <ele>1388</ele>
        <time>2022-06-04T18:31:54Z</time>
      </trkpt>
      <trkpt lat="44.60612" lon="3.59492">
        <ele>1388</ele>
        <time>2022-06-04T18:31:58Z</time>
      </trkpt>
      <trkpt lat="44.60535" lon="3.59565">
        <ele>1385</ele>
        <time>2022-06-04T18:32:15Z</time>
      </trkpt>
      <trkpt lat="44.60512" lon="3.59598">
        <ele>1384</ele>
        <time>2022-06-04T18:32:20Z</time>
      </trkpt>
      <trkpt lat="44.6051" lon="3.59609">
        <ele>1384</ele>
        <time>2022-06-04T18:32:22Z</time>
      </trkpt>
      <trkpt lat="44.60513" lon="3.59624">
        <ele>1383</ele>
        <time>2022-06-04T18:32:24Z</time>
      </trkpt>
      <trkpt lat="44.60533" lon="3.59676">
        <ele>1380</ele>
        <time>2022-06-04T18:32:31Z</time>
      </trkpt>
      <trkpt lat="44.6056" lon="3.59736">
        <ele>1378</ele>
        <time>2022-06-04T18:32:40Z</time>
      </trkpt>
      <trkpt lat="44.606" lon="3.598">
        <ele>1376</ele>
        <time>2022-06-04T18:32:51Z</time>
      </trkpt>
      <trkpt lat="44.60781" lon="3.60056">
        <ele>1383</ele>
        <time>2022-06-04T18:33:37Z</time>
      </trkpt>
      <trkpt lat="44.60794" lon="3.60083">
        <ele>1383</ele>
        <time>2022-06-04T18:33:41Z</time>
      </trkpt>
      <trkpt lat="44.60804" lon="3.60115">
        <ele>1384</ele>
        <time>2022-06-04T18:33:45Z</time>
      </trkpt>
      <trkpt lat="44.60814" lon="3.60172">
        <ele>1384</ele>
        <time>2022-06-04T18:33:53Z</time>
      </trkpt>
      <trkpt lat="44.60828" lon="3.60281">
        <ele>1383</ele>
        <time>2022-06-04T18:34:07Z</time>
      </trkpt>
      <trkpt lat="44.60842" lon="3.60342">
        <ele>1381</ele>
        <time>2022-06-04T18:34:15Z</time>
      </trkpt>
      <trkpt lat="44.6085" lon="3.60363">
        <ele>1381</ele>
        <time>2022-06-04T18:34:18Z</time>
      </trkpt>
      <trkpt lat="44.60858" lon="3.6038">
        <ele>1381</ele>
        <time>2022-06-04T18:34:21Z</time>
      </trkpt>
      <trkpt lat="44.60897" lon="3.60442">
        <ele>1382</ele>
        <time>2022-06-04T18:34:31Z</time>
      </trkpt>
      <trkpt lat="44.60939" lon="3.60501">
        <ele>1384</ele>
        <time>2022-06-04T18:34:42Z</time>
      </trkpt>
      <trkpt lat="44.60999" lon="3.60559">
        <ele>1387</ele>
        <time>2022-06-04T18:34:55Z</time>
      </trkpt>
      <trkpt lat="44.61038" lon="3.60588">
        <ele>1390</ele>
        <time>2022-06-04T18:35:02Z</time>
      </trkpt>
      <trkpt lat="44.61117" lon="3.60628">
        <ele>1394</ele>
        <time>2022-06-04T18:35:17Z</time>
      </trkpt>
      <trkpt lat="44.61203" lon="3.60674">
        <ele>1398</ele>
        <time>2022-06-04T18:35:34Z</time>
      </trkpt>
      <trkpt lat="44.61304" lon="3.60724">
        <ele>1406</ele>
        <time>2022-06-04T18:35:53Z</time>
      </trkpt>
      <trkpt lat="44.6139" lon="3.6077">
        <ele>1414</ele>
        <time>2022-06-04T18:36:09Z</time>
      </trkpt>
      <trkpt lat="44.61404" lon="3.60781">
        <ele>1415</ele>
        <time>2022-06-04T18:36:12Z</time>
      </trkpt>
      <trkpt lat="44.61411" lon="3.60791">
        <ele>1416</ele>
        <time>2022-06-04T18:36:14Z</time>
      </trkpt>
      <trkpt lat="44.61424" lon="3.60829">
        <ele>1416</ele>
        <time>2022-06-04T18:36:19Z</time>
      </trkpt>
      <trkpt lat="44.61437" lon="3.60895">
        <ele>1418</ele>
        <time>2022-06-04T18:36:28Z</time>
      </trkpt>
      <trkpt lat="44.61443" lon="3.60993">
        <ele>1419</ele>
        <time>2022-06-04T18:36:40Z</time>
      </trkpt>
      <trkpt lat="44.61442" lon="3.61047">
        <ele>1421</ele>
        <time>2022-06-04T18:36:47Z</time>
      </trkpt>
      <trkpt lat="44.61436" lon="3.6109">
        <ele>1422</ele>
        <time>2022-06-04T18:36:53Z</time>
      </trkpt>
      <trkpt lat="44.61424" lon="3.61143">
        <ele>1423</ele>
        <time>2022-06-04T18:37:00Z</time>
      </trkpt>
      <trkpt lat="44.61389" lon="3.61285">
        <ele>1424</ele>
        <time>2022-06-04T18:37:19Z</time>
      </trkpt>
      <trkpt lat="44.61375" lon="3.61441">
        <ele>1425</ele>
        <time>2022-06-04T18:37:39Z</time>
      </trkpt>
      <trkpt lat="44.61369" lon="3.61568">
        <ele>1426</ele>
        <time>2022-06-04T18:37:55Z</time>
      </trkpt>
      <trkpt lat="44.6135" lon="3.61723">
        <ele>1430</ele>
        <time>2022-06-04T18:38:15Z</time>
      </trkpt>
      <trkpt lat="44.61342" lon="3.61776">
        <ele>1431</ele>
        <time>2022-06-04T18:38:21Z</time>
      </trkpt>
      <trkpt lat="44.61322" lon="3.61849">
        <ele>1433</ele>
        <time>2022-06-04T18:38:31Z</time>
      </trkpt>
      <trkpt lat="44.61317" lon="3.61879">
        <ele>1434</ele>
        <time>2022-06-04T18:38:35Z</time>
      </trkpt>
      <trkpt lat="44.61317" lon="3.61925">
        <ele>1434</ele>
        <time>2022-06-04T18:38:41Z</time>
      </trkpt>
      <trkpt lat="44.61323" lon="3.62069">
        <ele>1428</ele>
        <time>2022-06-04T18:38:59Z</time>
      </trkpt>
      <trkpt lat="44.61329" lon="3.62088">
        <ele>1428</ele>
        <time>2022-06-04T18:39:02Z</time>
      </trkpt>
      <trkpt lat="44.61337" lon="3.62105">
        <ele>1426</ele>
        <time>2022-06-04T18:39:05Z</time>
      </trkpt>
      <trkpt lat="44.61457" lon="3.62285">
        <ele>1417</ele>
        <time>2022-06-04T18:39:36Z</time>
      </trkpt>
      <trkpt lat="44.61506" lon="3.62353">
        <ele>1414</ele>
        <time>2022-06-04T18:39:48Z</time>
      </trkpt>
      <trkpt lat="44.61569" lon="3.62436">
        <ele>1409</ele>
        <time>2022-06-04T18:40:03Z</time>
      </trkpt>
      <trkpt lat="44.61676" lon="3.62565">
        <ele>1401</ele>
        <time>2022-06-04T18:40:29Z</time>
      </trkpt>
      <trkpt lat="44.61723" lon="3.62625">
        <ele>1399</ele>
        <time>2022-06-04T18:40:40Z</time>
      </trkpt>
      <trkpt lat="44.61735" lon="3.62649">
        <ele>1400</ele>
        <time>2022-06-04T18:40:44Z</time>
      </trkpt>
      <trkpt lat="44.61747" lon="3.62688">
        <ele>1399</ele>
        <time>2022-06-04T18:40:49Z</time>
      </trkpt>
      <trkpt lat="44.61767" lon="3.62767">
        <ele>1397</ele>
        <time>2022-06-04T18:41:00Z</time>
      </trkpt>
      <trkpt lat="44.61775" lon="3.62806">
        <ele>1396</ele>
        <time>2022-06-04T18:41:05Z</time>
      </trkpt>
      <trkpt lat="44.61781" lon="3.6285">
        <ele>1395</ele>
        <time>2022-06-04T18:41:10Z</time>
      </trkpt>
      <trkpt lat="44.61783" lon="3.62894">
        <ele>1393</ele>
        <time>2022-06-04T18:41:16Z</time>
      </trkpt>
      <trkpt lat="44.61782" lon="3.62976">
        <ele>1389</ele>
        <time>2022-06-04T18:41:26Z</time>
      </trkpt>
      <trkpt lat="44.61794" lon="3.63179">
        <ele>1375</ele>
        <time>2022-06-04T18:41:52Z</time>
      </trkpt>
      <trkpt lat="44.61803" lon="3.6331">
        <ele>1362</ele>
        <time>2022-06-04T18:42:09Z</time>
      </trkpt>
      <trkpt lat="44.61808" lon="3.63367">
        <ele>1359</ele>
        <time>2022-06-04T18:42:16Z</time>
      </trkpt>
      <trkpt lat="44.61821" lon="3.63424">
        <ele>1357</ele>
        <time>2022-06-04T18:42:24Z</time>
      </trkpt>
      <trkpt lat="44.61827" lon="3.63442">
        <ele>1356</ele>
        <time>2022-06-04T18:42:26Z</time>
      </trkpt>
      <trkpt lat="44.61849" lon="3.63474">
        <ele>1353</ele>
        <time>2022-06-04T18:42:32Z</time>
      </trkpt>
      <trkpt lat="44.61908" lon="3.63548">
        <ele>1347</ele>
        <time>2022-06-04T18:42:46Z</time>
      </trkpt>
      <trkpt lat="44.61941" lon="3.63593">
        <ele>1346</ele>
        <time>2022-06-04T18:42:54Z</time>
      </trkpt>
      <trkpt lat="44.61959" lon="3.63626">
        <ele>1343</ele>
        <time>2022-06-04T18:42:59Z</time>
      </trkpt>
      <trkpt lat="44.62085" lon="3.63884">
        <ele>1328</ele>
        <time>2022-06-04T18:43:39Z</time>
      </trkpt>
      <trkpt lat="44.62126" lon="3.63944">
        <ele>1323</ele>
        <time>2022-06-04T18:43:50Z</time>
      </trkpt>
      <trkpt lat="44.62167" lon="3.64">
        <ele>1320</ele>
        <time>2022-06-04T18:44:00Z</time>
      </trkpt>
      <trkpt lat="44.62182" lon="3.64013">
        <ele>1317</ele>
        <time>2022-06-04T18:44:03Z</time>
      </trkpt>
      <trkpt lat="44.62197" lon="3.64023">
        <ele>1315</ele>
        <time>2022-06-04T18:44:06Z</time>
      </trkpt>
      <trkpt lat="44.62216" lon="3.64028">
        <ele>1313</ele>
        <time>2022-06-04T18:44:09Z</time>
      </trkpt>
      <trkpt lat="44.62234" lon="3.64027">
        <ele>1311</ele>
        <time>2022-06-04T18:44:12Z</time>
      </trkpt>
      <trkpt lat="44.62247" lon="3.64019">
        <ele>1311</ele>
        <time>2022-06-04T18:44:15Z</time>
      </trkpt>
      <trkpt lat="44.62259" lon="3.64009">
        <ele>1310</ele>
        <time>2022-06-04T18:44:17Z</time>
      </trkpt>
      <trkpt lat="44.62283" lon="3.6398">
        <ele>1308</ele>
        <time>2022-06-04T18:44:23Z</time>
      </trkpt>
      <trkpt lat="44.62295" lon="3.63974">
        <ele>1306</ele>
        <time>2022-06-04T18:44:25Z</time>
      </trkpt>
      <trkpt lat="44.62311" lon="3.63974">
        <ele>1304</ele>
        <time>2022-06-04T18:44:28Z</time>
      </trkpt>
      <trkpt lat="44.6233" lon="3.63982">
        <ele>1301</ele>
        <time>2022-06-04T18:44:32Z</time>
      </trkpt>
      <trkpt lat="44.6235" lon="3.64002">
        <ele>1301</ele>
        <time>2022-06-04T18:44:36Z</time>
      </trkpt>
      <trkpt lat="44.62477" lon="3.64185">
        <ele>1289</ele>
        <time>2022-06-04T18:45:08Z</time>
      </trkpt>
      <trkpt lat="44.62488" lon="3.64217">
        <ele>1287</ele>
        <time>2022-06-04T18:45:13Z</time>
      </trkpt>
      <trkpt lat="44.62494" lon="3.64298">
        <ele>1282</ele>
        <time>2022-06-04T18:45:23Z</time>
      </trkpt>
      <trkpt lat="44.62533" lon="3.64487">
        <ele>1275</ele>
        <time>2022-06-04T18:45:48Z</time>
      </trkpt>
      <trkpt lat="44.62549" lon="3.6456">
        <ele>1273</ele>
        <time>2022-06-04T18:45:58Z</time>
      </trkpt>
      <trkpt lat="44.62627" lon="3.64846">
        <ele>1255</ele>
        <time>2022-06-04T18:46:37Z</time>
      </trkpt>
      <trkpt lat="44.62664" lon="3.6497">
        <ele>1255</ele>
        <time>2022-06-04T18:46:54Z</time>
      </trkpt>
      <trkpt lat="44.62695" lon="3.65051">
        <ele>1253</ele>
        <time>2022-06-04T18:47:05Z</time>
      </trkpt>
      <trkpt lat="44.62707" lon="3.65077">
        <ele>1252</ele>
        <time>2022-06-04T18:47:09Z</time>
      </trkpt>
      <trkpt lat="44.62744" lon="3.65127">
        <ele>1250</ele>
        <time>2022-06-04T18:47:18Z</time>
      </trkpt>
      <trkpt lat="44.62757" lon="3.65153">
        <ele>1247</ele>
        <time>2022-06-04T18:47:22Z</time>
      </trkpt>
      <trkpt lat="44.62782" lon="3.65218">
        <ele>1239</ele>
        <time>2022-06-04T18:47:32Z</time>
      </trkpt>
      <trkpt lat="44.62792" lon="3.65238">
        <ele>1237</ele>
        <time>2022-06-04T18:47:35Z</time>
      </trkpt>
      <trkpt lat="44.62803" lon="3.65255">
        <ele>1235</ele>
        <time>2022-06-04T18:47:38Z</time>
      </trkpt>
      <trkpt lat="44.62814" lon="3.65269">
        <ele>1235</ele>
        <time>2022-06-04T18:47:40Z</time>
      </trkpt>
      <trkpt lat="44.62862" lon="3.65315">
        <ele>1232</ele>
        <time>2022-06-04T18:47:51Z</time>
      </trkpt>
      <trkpt lat="44.6288" lon="3.65336">
        <ele>1232</ele>
        <time>2022-06-04T18:47:55Z</time>
      </trkpt>
      <trkpt lat="44.62893" lon="3.65357">
        <ele>1231</ele>
        <time>2022-06-04T18:47:58Z</time>
      </trkpt>
      <trkpt lat="44.62902" lon="3.65379">
        <ele>1231</ele>
        <time>2022-06-04T18:48:02Z</time>
      </trkpt>
      <trkpt lat="44.62911" lon="3.65406">
        <ele>1231</ele>
        <time>2022-06-04T18:48:05Z</time>
      </trkpt>
      <trkpt lat="44.62921" lon="3.65455">
        <ele>1230</ele>
        <time>2022-06-04T18:48:12Z</time>
      </trkpt>
      <trkpt lat="44.62924" lon="3.65493">
        <ele>1227</ele>
        <time>2022-06-04T18:48:17Z</time>
      </trkpt>
      <trkpt lat="44.62924" lon="3.65523">
        <ele>1225</ele>
        <time>2022-06-04T18:48:21Z</time>
      </trkpt>
      <trkpt lat="44.62922" lon="3.65552">
        <ele>1223</ele>
        <time>2022-06-04T18:48:24Z</time>
      </trkpt>
      <trkpt lat="44.62914" lon="3.65613">
        <ele>1219</ele>
        <time>2022-06-04T18:48:32Z</time>
      </trkpt>
      <trkpt lat="44.62903" lon="3.65676">
        <ele>1214</ele>
        <time>2022-06-04T18:48:40Z</time>
      </trkpt>
      <trkpt lat="44.6284" lon="3.65872">
        <ele>1201</ele>
        <time>2022-06-04T18:49:07Z</time>
      </trkpt>
      <trkpt lat="44.62831" lon="3.65907">
        <ele>1200</ele>
        <time>2022-06-04T18:49:12Z</time>
      </trkpt>
      <trkpt lat="44.62809" lon="3.66037">
        <ele>1190</ele>
        <time>2022-06-04T18:49:29Z</time>
      </trkpt>
      <trkpt lat="44.62801" lon="3.6606">
        <ele>1188</ele>
        <time>2022-06-04T18:49:32Z</time>
      </trkpt>
      <trkpt lat="44.62789" lon="3.66078">
        <ele>1187</ele>
        <time>2022-06-04T18:49:35Z</time>
      </trkpt>
      <trkpt lat="44.62761" lon="3.66103">
        <ele>1186</ele>
        <time>2022-06-04T18:49:41Z</time>
      </trkpt>
      <trkpt lat="44.62757" lon="3.66119">
        <ele>1185</ele>
        <time>2022-06-04T18:49:44Z</time>
      </trkpt>
      <trkpt lat="44.62758" lon="3.66138">
        <ele>1184</ele>
        <time>2022-06-04T18:49:46Z</time>
      </trkpt>
      <trkpt lat="44.62764" lon="3.6616">
        <ele>1183</ele>
        <time>2022-06-04T18:49:49Z</time>
      </trkpt>
      <trkpt lat="44.62774" lon="3.66178">
        <ele>1182</ele>
        <time>2022-06-04T18:49:52Z</time>
      </trkpt>
      <trkpt lat="44.62793" lon="3.66207">
        <ele>1181</ele>
        <time>2022-06-04T18:49:57Z</time>
      </trkpt>
      <trkpt lat="44.62857" lon="3.66301">
        <ele>1184</ele>
        <time>2022-06-04T18:50:13Z</time>
      </trkpt>
      <trkpt lat="44.62864" lon="3.66319">
        <ele>1185</ele>
        <time>2022-06-04T18:50:16Z</time>
      </trkpt>
      <trkpt lat="44.62866" lon="3.66334">
        <ele>1186</ele>
        <time>2022-06-04T18:50:18Z</time>
      </trkpt>
      <trkpt lat="44.62864" lon="3.66348">
        <ele>1187</ele>
        <time>2022-06-04T18:50:20Z</time>
      </trkpt>
      <trkpt lat="44.62851" lon="3.66379">
        <ele>1187</ele>
        <time>2022-06-04T18:50:24Z</time>
      </trkpt>
      <trkpt lat="44.62837" lon="3.66431">
        <ele>1186</ele>
        <time>2022-06-04T18:50:31Z</time>
      </trkpt>
      <trkpt lat="44.62829" lon="3.66475">
        <ele>1186</ele>
        <time>2022-06-04T18:50:37Z</time>
      </trkpt>
      <trkpt lat="44.62824" lon="3.66515">
        <ele>1186</ele>
        <time>2022-06-04T18:50:42Z</time>
      </trkpt>
      <trkpt lat="44.62824" lon="3.66551">
        <ele>1187</ele>
        <time>2022-06-04T18:50:47Z</time>
      </trkpt>
      <trkpt lat="44.62834" lon="3.66687">
        <ele>1185</ele>
        <time>2022-06-04T18:51:04Z</time>
      </trkpt>
      <trkpt lat="44.62835" lon="3.66731">
        <ele>1184</ele>
        <time>2022-06-04T18:51:10Z</time>
      </trkpt>
      <trkpt lat="44.62824" lon="3.66877">
        <ele>1182</ele>
        <time>2022-06-04T18:51:28Z</time>
      </trkpt>
      <trkpt lat="44.62816" lon="3.66922">
        <ele>1180</ele>
        <time>2022-06-04T18:51:34Z</time>
      </trkpt>
      <trkpt lat="44.62794" lon="3.67012">
        <ele>1178</ele>
        <time>2022-06-04T18:51:46Z</time>
      </trkpt>
      <trkpt lat="44.62768" lon="3.671">
        <ele>1177</ele>
        <time>2022-06-04T18:51:58Z</time>
      </trkpt>
      <trkpt lat="44.62762" lon="3.67123">
        <ele>1177</ele>
        <time>2022-06-04T18:52:01Z</time>
      </trkpt>
      <trkpt lat="44.62763" lon="3.67143">
        <ele>1177</ele>
        <time>2022-06-04T18:52:04Z</time>
      </trkpt>
      <trkpt lat="44.62767" lon="3.67157">
        <ele>1177</ele>
        <time>2022-06-04T18:52:06Z</time>
      </trkpt>
      <trkpt lat="44.62779" lon="3.67179">
        <ele>1177</ele>
        <time>2022-06-04T18:52:09Z</time>
      </trkpt>
      <trkpt lat="44.62796" lon="3.67199">
        <ele>1177</ele>
        <time>2022-06-04T18:52:13Z</time>
      </trkpt>
      <trkpt lat="44.62811" lon="3.67212">
        <ele>1177</ele>
        <time>2022-06-04T18:52:16Z</time>
      </trkpt>
      <trkpt lat="44.62831" lon="3.67224">
        <ele>1177</ele>
        <time>2022-06-04T18:52:20Z</time>
      </trkpt>
      <trkpt lat="44.62858" lon="3.67229">
        <ele>1177</ele>
        <time>2022-06-04T18:52:25Z</time>
      </trkpt>
      <trkpt lat="44.62924" lon="3.67236">
        <ele>1177</ele>
        <time>2022-06-04T18:52:37Z</time>
      </trkpt>
      <trkpt lat="44.62962" lon="3.67242">
        <ele>1177</ele>
        <time>2022-06-04T18:52:44Z</time>
      </trkpt>
      <trkpt lat="44.6298" lon="3.67247">
        <ele>1177</ele>
        <time>2022-06-04T18:52:47Z</time>
      </trkpt>
      <trkpt lat="44.63006" lon="3.6726">
        <ele>1177</ele>
        <time>2022-06-04T18:52:52Z</time>
      </trkpt>
      <trkpt lat="44.6303" lon="3.67275">
        <ele>1176</ele>
        <time>2022-06-04T18:52:56Z</time>
      </trkpt>
      <trkpt lat="44.63068" lon="3.67293">
        <ele>1176</ele>
        <time>2022-06-04T18:53:04Z</time>
      </trkpt>
      <trkpt lat="44.63107" lon="3.67309">
        <ele>1175</ele>
        <time>2022-06-04T18:53:11Z</time>
      </trkpt>
      <trkpt lat="44.63163" lon="3.67325">
        <ele>1175</ele>
        <time>2022-06-04T18:53:21Z</time>
      </trkpt>
      <trkpt lat="44.63221" lon="3.67348">
        <ele>1175</ele>
        <time>2022-06-04T18:53:32Z</time>
      </trkpt>
      <trkpt lat="44.63259" lon="3.67348">
        <ele>1176</ele>
        <time>2022-06-04T18:53:38Z</time>
      </trkpt>
      <trkpt lat="44.63334" lon="3.67361">
        <ele>1175</ele>
        <time>2022-06-04T18:53:52Z</time>
      </trkpt>
      <trkpt lat="44.63359" lon="3.67361">
        <ele>1175</ele>
        <time>2022-06-04T18:53:56Z</time>
      </trkpt>
      <trkpt lat="44.63445" lon="3.67343">
        <ele>1174</ele>
        <time>2022-06-04T18:54:12Z</time>
      </trkpt>
      <trkpt lat="44.63461" lon="3.67349">
        <ele>1174</ele>
        <time>2022-06-04T18:54:15Z</time>
      </trkpt>
      <trkpt lat="44.63476" lon="3.67365">
        <ele>1175</ele>
        <time>2022-06-04T18:54:18Z</time>
      </trkpt>
      <trkpt lat="44.63498" lon="3.67392">
        <ele>1176</ele>
        <time>2022-06-04T18:54:23Z</time>
      </trkpt>
      <trkpt lat="44.63505" lon="3.67413">
        <ele>1177</ele>
        <time>2022-06-04T18:54:26Z</time>
      </trkpt>
      <trkpt lat="44.63473" lon="3.67435">
        <ele>1177</ele>
        <time>2022-06-04T18:54:33Z</time>
      </trkpt>
      <trkpt lat="44.63442" lon="3.67463">
        <ele>1177</ele>
        <time>2022-06-04T18:54:39Z</time>
      </trkpt>
      <trkpt lat="44.63419" lon="3.675">
        <ele>1177</ele>
        <time>2022-06-04T18:54:45Z</time>
      </trkpt>
      <trkpt lat="44.634" lon="3.67557">
        <ele>1179</ele>
        <time>2022-06-04T18:54:53Z</time>
      </trkpt>
      <trkpt lat="44.63383" lon="3.67599">
        <ele>1180</ele>
        <time>2022-06-04T18:54:59Z</time>
      </trkpt>
      <trkpt lat="44.63379" lon="3.67604">
        <ele>1180</ele>
        <time>2022-06-04T18:55:00Z</time>
      </trkpt>
      <trkpt lat="44.63389" lon="3.67604">
        <ele>1180</ele>
        <time>2022-06-04T18:55:02Z</time>
      </trkpt>
      <trkpt lat="44.63399" lon="3.67606">
        <ele>1180</ele>
        <time>2022-06-04T18:55:04Z</time>
      </trkpt>
      <trkpt lat="44.63415" lon="3.67601">
        <ele>1181</ele>
        <time>2022-06-04T18:55:07Z</time>
      </trkpt>
      <trkpt lat="44.63428" lon="3.67591">
        <ele>1182</ele>
        <time>2022-06-04T18:55:10Z</time>
      </trkpt>
      <trkpt lat="44.63456" lon="3.67586">
        <ele>1185</ele>
        <time>2022-06-04T18:55:15Z</time>
      </trkpt>
    </trkseg>
  </trk>
</gpx>